<?xml version="1.0" encoding="UTF-8" standalone="no" ?>
<gpx xmlns="http://www.topografix.com/GPX/1/1" xmlns:xsi="http://www.w3.org/2001/XMLSchema-instance" xsi:schemaLocation="http://www.topografix.com/GPX/1/1 http://www.topografix.com/GPX/1/1/gpx.xsd" version="1.1" creator="VisuGPX - https://www.visugpx.com">
  <metadata>
    <name>circuit autour de Thines</name>
    <desc><![CDATA[joli parcourt de 11 km ]]></desc>
  </metadata>
  <trk>
    <name><![CDATA[Thines A]]></name>
    <trkseg>
      <trkpt lat="44.49429" lon="4.04431">
        <ele>497.138916</ele>
        <time>2012-04-16T09:52:05Z</time>
      </trkpt>
      <trkpt lat="44.49432" lon="4.04434">
        <ele>493.774292</ele>
        <time>2012-04-16T09:52:11Z</time>
      </trkpt>
      <trkpt lat="44.49423" lon="4.04432">
        <ele>497.138916</ele>
        <time>2012-04-16T09:52:41Z</time>
      </trkpt>
      <trkpt lat="44.49416" lon="4.04436">
        <ele>497.619629</ele>
        <time>2012-04-16T09:52:57Z</time>
      </trkpt>
      <trkpt lat="44.49413" lon="4.04446">
        <ele>497.619629</ele>
        <time>2012-04-16T09:53:40Z</time>
      </trkpt>
      <trkpt lat="44.49421" lon="4.04446">
        <ele>498.100342</ele>
        <time>2012-04-16T09:54:01Z</time>
      </trkpt>
      <trkpt lat="44.49423" lon="4.04451">
        <ele>497.138916</ele>
        <time>2012-04-16T09:54:16Z</time>
      </trkpt>
      <trkpt lat="44.49423" lon="4.0444">
        <ele>499.061523</ele>
        <time>2012-04-16T09:54:28Z</time>
      </trkpt>
      <trkpt lat="44.49423" lon="4.04436">
        <ele>498.100342</ele>
        <time>2012-04-16T09:54:33Z</time>
      </trkpt>
      <trkpt lat="44.49419" lon="4.04431">
        <ele>497.619629</ele>
        <time>2012-04-16T09:54:38Z</time>
      </trkpt>
      <trkpt lat="44.49422" lon="4.04421">
        <ele>498.100342</ele>
        <time>2012-04-16T09:54:49Z</time>
      </trkpt>
      <trkpt lat="44.49424" lon="4.0442">
        <ele>498.100342</ele>
        <time>2012-04-16T09:54:51Z</time>
      </trkpt>
      <trkpt lat="44.4943" lon="4.0441">
        <ele>498.100342</ele>
        <time>2012-04-16T09:54:59Z</time>
      </trkpt>
      <trkpt lat="44.49432" lon="4.04408">
        <ele>498.100342</ele>
        <time>2012-04-16T09:55:14Z</time>
      </trkpt>
      <trkpt lat="44.49428" lon="4.0441">
        <ele>499.061523</ele>
        <time>2012-04-16T09:55:52Z</time>
      </trkpt>
      <trkpt lat="44.49423" lon="4.04417">
        <ele>500.50354</ele>
        <time>2012-04-16T09:55:59Z</time>
      </trkpt>
      <trkpt lat="44.4942" lon="4.04426">
        <ele>497.619629</ele>
        <time>2012-04-16T09:56:06Z</time>
      </trkpt>
      <trkpt lat="44.49419" lon="4.04443">
        <ele>494.735596</ele>
        <time>2012-04-16T09:56:26Z</time>
      </trkpt>
      <trkpt lat="44.49424" lon="4.04447">
        <ele>494.255005</ele>
        <time>2012-04-16T09:56:46Z</time>
      </trkpt>
      <trkpt lat="44.49421" lon="4.0444">
        <ele>495.216187</ele>
        <time>2012-04-16T09:58:22Z</time>
      </trkpt>
      <trkpt lat="44.49416" lon="4.04443">
        <ele>495.696899</ele>
        <time>2012-04-16T09:58:40Z</time>
      </trkpt>
      <trkpt lat="44.49413" lon="4.04444">
        <ele>495.216187</ele>
        <time>2012-04-16T09:59:02Z</time>
      </trkpt>
      <trkpt lat="44.49412" lon="4.04444">
        <ele>494.735596</ele>
        <time>2012-04-16T09:59:19Z</time>
      </trkpt>
      <trkpt lat="44.4941" lon="4.04442">
        <ele>495.216187</ele>
        <time>2012-04-16T09:59:51Z</time>
      </trkpt>
      <trkpt lat="44.4941" lon="4.04459">
        <ele>495.696899</ele>
        <time>2012-04-16T10:00:45Z</time>
      </trkpt>
      <trkpt lat="44.49404" lon="4.04467">
        <ele>495.696899</ele>
        <time>2012-04-16T10:00:52Z</time>
      </trkpt>
      <trkpt lat="44.49401" lon="4.04471">
        <ele>496.177734</ele>
        <time>2012-04-16T10:00:56Z</time>
      </trkpt>
      <trkpt lat="44.494" lon="4.04475">
        <ele>496.177734</ele>
        <time>2012-04-16T10:00:59Z</time>
      </trkpt>
      <trkpt lat="44.49388" lon="4.04495">
        <ele>499.061523</ele>
        <time>2012-04-16T10:01:16Z</time>
      </trkpt>
      <trkpt lat="44.49382" lon="4.04506">
        <ele>500.984131</ele>
        <time>2012-04-16T10:01:27Z</time>
      </trkpt>
      <trkpt lat="44.49373" lon="4.04513">
        <ele>502.426147</ele>
        <time>2012-04-16T10:01:36Z</time>
      </trkpt>
      <trkpt lat="44.49371" lon="4.04516">
        <ele>503.387451</ele>
        <time>2012-04-16T10:01:39Z</time>
      </trkpt>
      <trkpt lat="44.49367" lon="4.0452">
        <ele>503.387451</ele>
        <time>2012-04-16T10:01:42Z</time>
      </trkpt>
      <trkpt lat="44.49347" lon="4.04535">
        <ele>505.790894</ele>
        <time>2012-04-16T10:01:59Z</time>
      </trkpt>
      <trkpt lat="44.49343" lon="4.04538">
        <ele>505.790894</ele>
        <time>2012-04-16T10:02:02Z</time>
      </trkpt>
      <trkpt lat="44.49338" lon="4.04554">
        <ele>509.636108</ele>
        <time>2012-04-16T10:02:16Z</time>
      </trkpt>
      <trkpt lat="44.49339" lon="4.04559">
        <ele>510.59729</ele>
        <time>2012-04-16T10:02:19Z</time>
      </trkpt>
      <trkpt lat="44.4935" lon="4.04582">
        <ele>516.845947</ele>
        <time>2012-04-16T10:02:38Z</time>
      </trkpt>
      <trkpt lat="44.49362" lon="4.04599">
        <ele>521.652588</ele>
        <time>2012-04-16T10:02:50Z</time>
      </trkpt>
      <trkpt lat="44.4937" lon="4.04613">
        <ele>525.978394</ele>
        <time>2012-04-16T10:03:04Z</time>
      </trkpt>
      <trkpt lat="44.49367" lon="4.04617">
        <ele>526.459106</ele>
        <time>2012-04-16T10:03:23Z</time>
      </trkpt>
      <trkpt lat="44.49381" lon="4.04635">
        <ele>526.939819</ele>
        <time>2012-04-16T10:03:49Z</time>
      </trkpt>
      <trkpt lat="44.49394" lon="4.04657">
        <ele>527.42041</ele>
        <time>2012-04-16T10:04:10Z</time>
      </trkpt>
      <trkpt lat="44.49403" lon="4.04681">
        <ele>528.381836</ele>
        <time>2012-04-16T10:04:30Z</time>
      </trkpt>
      <trkpt lat="44.49406" lon="4.04716">
        <ele>529.34314</ele>
        <time>2012-04-16T10:04:50Z</time>
      </trkpt>
      <trkpt lat="44.494" lon="4.04743">
        <ele>529.82373</ele>
        <time>2012-04-16T10:05:09Z</time>
      </trkpt>
      <trkpt lat="44.49397" lon="4.04774">
        <ele>530.304443</ele>
        <time>2012-04-16T10:05:26Z</time>
      </trkpt>
      <trkpt lat="44.494" lon="4.048">
        <ele>529.34314</ele>
        <time>2012-04-16T10:05:44Z</time>
      </trkpt>
      <trkpt lat="44.49398" lon="4.04834">
        <ele>527.42041</ele>
        <time>2012-04-16T10:06:04Z</time>
      </trkpt>
      <trkpt lat="44.49394" lon="4.04856">
        <ele>526.459106</ele>
        <time>2012-04-16T10:06:22Z</time>
      </trkpt>
      <trkpt lat="44.49398" lon="4.04882">
        <ele>525.017212</ele>
        <time>2012-04-16T10:06:37Z</time>
      </trkpt>
      <trkpt lat="44.49394" lon="4.04915">
        <ele>525.978394</ele>
        <time>2012-04-16T10:06:56Z</time>
      </trkpt>
      <trkpt lat="44.49391" lon="4.04927">
        <ele>523.575195</ele>
        <time>2012-04-16T10:07:17Z</time>
      </trkpt>
      <trkpt lat="44.49393" lon="4.0493">
        <ele>520.691284</ele>
        <time>2012-04-16T10:07:30Z</time>
      </trkpt>
      <trkpt lat="44.49388" lon="4.04927">
        <ele>521.171997</ele>
        <time>2012-04-16T10:07:37Z</time>
      </trkpt>
      <trkpt lat="44.49386" lon="4.04926">
        <ele>521.171997</ele>
        <time>2012-04-16T10:07:39Z</time>
      </trkpt>
      <trkpt lat="44.49373" lon="4.04919">
        <ele>522.613892</ele>
        <time>2012-04-16T10:07:54Z</time>
      </trkpt>
      <trkpt lat="44.4937" lon="4.0492">
        <ele>523.094604</ele>
        <time>2012-04-16T10:07:57Z</time>
      </trkpt>
      <trkpt lat="44.49361" lon="4.04929">
        <ele>524.536499</ele>
        <time>2012-04-16T10:08:11Z</time>
      </trkpt>
      <trkpt lat="44.49357" lon="4.04933">
        <ele>525.978394</ele>
        <time>2012-04-16T10:08:25Z</time>
      </trkpt>
      <trkpt lat="44.49368" lon="4.04941">
        <ele>526.939819</ele>
        <time>2012-04-16T10:08:38Z</time>
      </trkpt>
      <trkpt lat="44.4937" lon="4.04955">
        <ele>527.42041</ele>
        <time>2012-04-16T10:08:51Z</time>
      </trkpt>
      <trkpt lat="44.49375" lon="4.0497">
        <ele>527.901001</ele>
        <time>2012-04-16T10:09:05Z</time>
      </trkpt>
      <trkpt lat="44.49374" lon="4.04982">
        <ele>527.901001</ele>
        <time>2012-04-16T10:09:13Z</time>
      </trkpt>
      <trkpt lat="44.49368" lon="4.04984">
        <ele>527.901001</ele>
        <time>2012-04-16T10:09:27Z</time>
      </trkpt>
      <trkpt lat="44.49365" lon="4.04978">
        <ele>526.939819</ele>
        <time>2012-04-16T10:09:37Z</time>
      </trkpt>
      <trkpt lat="44.49356" lon="4.04983">
        <ele>525.497803</ele>
        <time>2012-04-16T10:09:51Z</time>
      </trkpt>
      <trkpt lat="44.49337" lon="4.04981">
        <ele>525.497803</ele>
        <time>2012-04-16T10:10:05Z</time>
      </trkpt>
      <trkpt lat="44.4933" lon="4.04989">
        <ele>523.575195</ele>
        <time>2012-04-16T10:10:20Z</time>
      </trkpt>
      <trkpt lat="44.4933" lon="4.04991">
        <ele>524.055786</ele>
        <time>2012-04-16T10:10:46Z</time>
      </trkpt>
      <trkpt lat="44.49323" lon="4.04992">
        <ele>525.497803</ele>
        <time>2012-04-16T10:11:02Z</time>
      </trkpt>
      <trkpt lat="44.49318" lon="4.04992">
        <ele>527.42041</ele>
        <time>2012-04-16T10:11:21Z</time>
      </trkpt>
      <trkpt lat="44.49313" lon="4.0499">
        <ele>529.82373</ele>
        <time>2012-04-16T10:11:50Z</time>
      </trkpt>
      <trkpt lat="44.4931" lon="4.04989">
        <ele>530.304443</ele>
        <time>2012-04-16T10:11:52Z</time>
      </trkpt>
      <trkpt lat="44.49296" lon="4.04982">
        <ele>532.707764</ele>
        <time>2012-04-16T10:12:08Z</time>
      </trkpt>
      <trkpt lat="44.49294" lon="4.04979">
        <ele>533.188354</ele>
        <time>2012-04-16T10:12:11Z</time>
      </trkpt>
      <trkpt lat="44.49287" lon="4.04974">
        <ele>533.668945</ele>
        <time>2012-04-16T10:12:17Z</time>
      </trkpt>
      <trkpt lat="44.49279" lon="4.04967">
        <ele>535.591553</ele>
        <time>2012-04-16T10:12:25Z</time>
      </trkpt>
      <trkpt lat="44.49261" lon="4.0497">
        <ele>536.553101</ele>
        <time>2012-04-16T10:12:39Z</time>
      </trkpt>
      <trkpt lat="44.49249" lon="4.04977">
        <ele>534.630371</ele>
        <time>2012-04-16T10:12:55Z</time>
      </trkpt>
      <trkpt lat="44.49234" lon="4.04983">
        <ele>533.188354</ele>
        <time>2012-04-16T10:13:11Z</time>
      </trkpt>
      <trkpt lat="44.49221" lon="4.04993">
        <ele>531.265747</ele>
        <time>2012-04-16T10:13:28Z</time>
      </trkpt>
      <trkpt lat="44.49208" lon="4.05002">
        <ele>530.304443</ele>
        <time>2012-04-16T10:13:44Z</time>
      </trkpt>
      <trkpt lat="44.49191" lon="4.05019">
        <ele>530.304443</ele>
        <time>2012-04-16T10:14:03Z</time>
      </trkpt>
      <trkpt lat="44.49182" lon="4.05028">
        <ele>530.304443</ele>
        <time>2012-04-16T10:14:18Z</time>
      </trkpt>
      <trkpt lat="44.49183" lon="4.05024">
        <ele>526.939819</ele>
        <time>2012-04-16T10:14:32Z</time>
      </trkpt>
      <trkpt lat="44.49189" lon="4.05016">
        <ele>516.845947</ele>
        <time>2012-04-16T10:14:46Z</time>
      </trkpt>
      <trkpt lat="44.49193" lon="4.04999">
        <ele>506.752075</ele>
        <time>2012-04-16T10:15:03Z</time>
      </trkpt>
      <trkpt lat="44.49183" lon="4.05012">
        <ele>501.945557</ele>
        <time>2012-04-16T10:15:25Z</time>
      </trkpt>
      <trkpt lat="44.49174" lon="4.0503">
        <ele>498.100342</ele>
        <time>2012-04-16T10:15:43Z</time>
      </trkpt>
      <trkpt lat="44.49172" lon="4.05038">
        <ele>498.100342</ele>
        <time>2012-04-16T10:15:49Z</time>
      </trkpt>
      <trkpt lat="44.49167" lon="4.05063">
        <ele>500.984131</ele>
        <time>2012-04-16T10:16:09Z</time>
      </trkpt>
      <trkpt lat="44.49164" lon="4.05079">
        <ele>501.945557</ele>
        <time>2012-04-16T10:16:22Z</time>
      </trkpt>
      <trkpt lat="44.49164" lon="4.05095">
        <ele>502.426147</ele>
        <time>2012-04-16T10:16:34Z</time>
      </trkpt>
      <trkpt lat="44.49165" lon="4.05112">
        <ele>501.464844</ele>
        <time>2012-04-16T10:16:48Z</time>
      </trkpt>
      <trkpt lat="44.49163" lon="4.05134">
        <ele>501.945557</ele>
        <time>2012-04-16T10:17:07Z</time>
      </trkpt>
      <trkpt lat="44.49164" lon="4.05149">
        <ele>502.906738</ele>
        <time>2012-04-16T10:17:21Z</time>
      </trkpt>
      <trkpt lat="44.49158" lon="4.0515">
        <ele>503.868164</ele>
        <time>2012-04-16T10:17:30Z</time>
      </trkpt>
      <trkpt lat="44.49148" lon="4.05148">
        <ele>503.387451</ele>
        <time>2012-04-16T10:17:44Z</time>
      </trkpt>
      <trkpt lat="44.49148" lon="4.0514">
        <ele>500.022949</ele>
        <time>2012-04-16T10:18:00Z</time>
      </trkpt>
      <trkpt lat="44.49148" lon="4.05151">
        <ele>496.658325</ele>
        <time>2012-04-16T10:18:18Z</time>
      </trkpt>
      <trkpt lat="44.4915" lon="4.05172">
        <ele>492.332397</ele>
        <time>2012-04-16T10:18:39Z</time>
      </trkpt>
      <trkpt lat="44.49142" lon="4.05176">
        <ele>488.967773</ele>
        <time>2012-04-16T10:18:54Z</time>
      </trkpt>
      <trkpt lat="44.49135" lon="4.05171">
        <ele>483.199829</ele>
        <time>2012-04-16T10:19:08Z</time>
      </trkpt>
      <trkpt lat="44.49132" lon="4.05165">
        <ele>471.18335</ele>
        <time>2012-04-16T10:19:25Z</time>
      </trkpt>
      <trkpt lat="44.49127" lon="4.05162">
        <ele>467.338135</ele>
        <time>2012-04-16T10:19:38Z</time>
      </trkpt>
      <trkpt lat="44.49121" lon="4.0516">
        <ele>463.973389</ele>
        <time>2012-04-16T10:19:53Z</time>
      </trkpt>
      <trkpt lat="44.49126" lon="4.05173">
        <ele>461.089478</ele>
        <time>2012-04-16T10:20:10Z</time>
      </trkpt>
      <trkpt lat="44.49136" lon="4.05192">
        <ele>458.205566</ele>
        <time>2012-04-16T10:20:29Z</time>
      </trkpt>
      <trkpt lat="44.49137" lon="4.05197">
        <ele>457.244263</ele>
        <time>2012-04-16T10:20:37Z</time>
      </trkpt>
      <trkpt lat="44.49142" lon="4.0521">
        <ele>452.437622</ele>
        <time>2012-04-16T10:20:51Z</time>
      </trkpt>
      <trkpt lat="44.49144" lon="4.05219">
        <ele>447.630981</ele>
        <time>2012-04-16T10:21:11Z</time>
      </trkpt>
      <trkpt lat="44.49135" lon="4.05217">
        <ele>443.785767</ele>
        <time>2012-04-16T10:21:36Z</time>
      </trkpt>
      <trkpt lat="44.49115" lon="4.05207">
        <ele>441.863159</ele>
        <time>2012-04-16T10:21:58Z</time>
      </trkpt>
      <trkpt lat="44.49102" lon="4.05204">
        <ele>441.863159</ele>
        <time>2012-04-16T10:22:14Z</time>
      </trkpt>
      <trkpt lat="44.49088" lon="4.05204">
        <ele>441.382446</ele>
        <time>2012-04-16T10:22:26Z</time>
      </trkpt>
      <trkpt lat="44.49081" lon="4.05195">
        <ele>436.095215</ele>
        <time>2012-04-16T10:22:42Z</time>
      </trkpt>
      <trkpt lat="44.49069" lon="4.05183">
        <ele>434.172607</ele>
        <time>2012-04-16T10:23:00Z</time>
      </trkpt>
      <trkpt lat="44.49061" lon="4.05178">
        <ele>433.211304</ele>
        <time>2012-04-16T10:23:28Z</time>
      </trkpt>
      <trkpt lat="44.49061" lon="4.05176">
        <ele>428.404663</ele>
        <time>2012-04-16T10:23:51Z</time>
      </trkpt>
      <trkpt lat="44.4906" lon="4.05175">
        <ele>425.040161</ele>
        <time>2012-04-16T10:24:04Z</time>
      </trkpt>
      <trkpt lat="44.49063" lon="4.05179">
        <ele>425.040161</ele>
        <time>2012-04-16T10:24:21Z</time>
      </trkpt>
      <trkpt lat="44.49056" lon="4.05178">
        <ele>425.520752</ele>
        <time>2012-04-16T10:24:36Z</time>
      </trkpt>
      <trkpt lat="44.49079" lon="4.0518">
        <ele>425.520752</ele>
        <time>2012-04-16T10:25:01Z</time>
      </trkpt>
      <trkpt lat="44.49066" lon="4.05176">
        <ele>426.482056</ele>
        <time>2012-04-16T10:26:48Z</time>
      </trkpt>
      <trkpt lat="44.49062" lon="4.05174">
        <ele>426.962769</ele>
        <time>2012-04-16T10:26:59Z</time>
      </trkpt>
      <trkpt lat="44.49062" lon="4.05177">
        <ele>426.962769</ele>
        <time>2012-04-16T10:27:27Z</time>
      </trkpt>
      <trkpt lat="44.49064" lon="4.05176">
        <ele>426.001343</ele>
        <time>2012-04-16T10:27:31Z</time>
      </trkpt>
      <trkpt lat="44.49072" lon="4.05177">
        <ele>425.040161</ele>
        <time>2012-04-16T10:27:43Z</time>
      </trkpt>
      <trkpt lat="44.49072" lon="4.05176">
        <ele>424.078735</ele>
        <time>2012-04-16T10:27:54Z</time>
      </trkpt>
      <trkpt lat="44.49086" lon="4.05192">
        <ele>423.598022</ele>
        <time>2012-04-16T10:29:02Z</time>
      </trkpt>
      <trkpt lat="44.49098" lon="4.05201">
        <ele>424.078735</ele>
        <time>2012-04-16T10:29:31Z</time>
      </trkpt>
      <trkpt lat="44.49123" lon="4.05211">
        <ele>424.078735</ele>
        <time>2012-04-16T10:30:00Z</time>
      </trkpt>
      <trkpt lat="44.49131" lon="4.05225">
        <ele>424.078735</ele>
        <time>2012-04-16T10:30:28Z</time>
      </trkpt>
      <trkpt lat="44.4913" lon="4.05229">
        <ele>424.559448</ele>
        <time>2012-04-16T10:31:06Z</time>
      </trkpt>
      <trkpt lat="44.49129" lon="4.05227">
        <ele>425.520752</ele>
        <time>2012-04-16T10:31:33Z</time>
      </trkpt>
      <trkpt lat="44.49107" lon="4.05234">
        <ele>426.482056</ele>
        <time>2012-04-16T10:31:52Z</time>
      </trkpt>
      <trkpt lat="44.49092" lon="4.05241">
        <ele>428.404663</ele>
        <time>2012-04-16T10:32:07Z</time>
      </trkpt>
      <trkpt lat="44.49078" lon="4.05247">
        <ele>431.288574</ele>
        <time>2012-04-16T10:32:23Z</time>
      </trkpt>
      <trkpt lat="44.49072" lon="4.05279">
        <ele>435.614502</ele>
        <time>2012-04-16T10:32:44Z</time>
      </trkpt>
      <trkpt lat="44.49068" lon="4.05286">
        <ele>437.056519</ele>
        <time>2012-04-16T10:32:51Z</time>
      </trkpt>
      <trkpt lat="44.49053" lon="4.05295">
        <ele>440.901855</ele>
        <time>2012-04-16T10:33:10Z</time>
      </trkpt>
      <trkpt lat="44.49042" lon="4.05306">
        <ele>444.266479</ele>
        <time>2012-04-16T10:33:27Z</time>
      </trkpt>
      <trkpt lat="44.49033" lon="4.05315">
        <ele>446.189087</ele>
        <time>2012-04-16T10:33:40Z</time>
      </trkpt>
      <trkpt lat="44.49025" lon="4.05328">
        <ele>447.630981</ele>
        <time>2012-04-16T10:33:58Z</time>
      </trkpt>
      <trkpt lat="44.49015" lon="4.05322">
        <ele>448.111816</ele>
        <time>2012-04-16T10:34:26Z</time>
      </trkpt>
      <trkpt lat="44.49005" lon="4.05349">
        <ele>447.630981</ele>
        <time>2012-04-16T10:34:48Z</time>
      </trkpt>
      <trkpt lat="44.48997" lon="4.05365">
        <ele>447.630981</ele>
        <time>2012-04-16T10:35:02Z</time>
      </trkpt>
      <trkpt lat="44.48988" lon="4.05374">
        <ele>448.111816</ele>
        <time>2012-04-16T10:35:15Z</time>
      </trkpt>
      <trkpt lat="44.48964" lon="4.05387">
        <ele>450.034424</ele>
        <time>2012-04-16T10:35:42Z</time>
      </trkpt>
      <trkpt lat="44.4895" lon="4.05395">
        <ele>452.918213</ele>
        <time>2012-04-16T10:36:04Z</time>
      </trkpt>
      <trkpt lat="44.48944" lon="4.05399">
        <ele>452.918213</ele>
        <time>2012-04-16T10:36:37Z</time>
      </trkpt>
      <trkpt lat="44.48936" lon="4.05397">
        <ele>453.398926</ele>
        <time>2012-04-16T10:36:50Z</time>
      </trkpt>
      <trkpt lat="44.4893" lon="4.05405">
        <ele>453.879639</ele>
        <time>2012-04-16T10:37:25Z</time>
      </trkpt>
      <trkpt lat="44.48922" lon="4.05416">
        <ele>451.957031</ele>
        <time>2012-04-16T10:37:53Z</time>
      </trkpt>
      <trkpt lat="44.48913" lon="4.05429">
        <ele>450.034424</ele>
        <time>2012-04-16T10:38:15Z</time>
      </trkpt>
      <trkpt lat="44.48911" lon="4.05457">
        <ele>444.266479</ele>
        <time>2012-04-16T10:38:48Z</time>
      </trkpt>
      <trkpt lat="44.48923" lon="4.0545">
        <ele>439.94043</ele>
        <time>2012-04-16T10:39:14Z</time>
      </trkpt>
      <trkpt lat="44.48926" lon="4.05471">
        <ele>435.614502</ele>
        <time>2012-04-16T10:39:43Z</time>
      </trkpt>
      <trkpt lat="44.48926" lon="4.05488">
        <ele>432.730713</ele>
        <time>2012-04-16T10:40:02Z</time>
      </trkpt>
      <trkpt lat="44.48925" lon="4.0551">
        <ele>429.846558</ele>
        <time>2012-04-16T10:40:22Z</time>
      </trkpt>
      <trkpt lat="44.48923" lon="4.05546">
        <ele>427.443359</ele>
        <time>2012-04-16T10:40:45Z</time>
      </trkpt>
      <trkpt lat="44.48918" lon="4.05563">
        <ele>425.040161</ele>
        <time>2012-04-16T10:41:03Z</time>
      </trkpt>
      <trkpt lat="44.48919" lon="4.05595">
        <ele>422.156006</ele>
        <time>2012-04-16T10:41:27Z</time>
      </trkpt>
      <trkpt lat="44.48926" lon="4.05605">
        <ele>420.714111</ele>
        <time>2012-04-16T10:41:48Z</time>
      </trkpt>
      <trkpt lat="44.48934" lon="4.05615">
        <ele>418.310791</ele>
        <time>2012-04-16T10:42:46Z</time>
      </trkpt>
      <trkpt lat="44.4895" lon="4.05637">
        <ele>418.310791</ele>
        <time>2012-04-16T10:43:16Z</time>
      </trkpt>
      <trkpt lat="44.48964" lon="4.0568">
        <ele>417.349609</ele>
        <time>2012-04-16T10:43:50Z</time>
      </trkpt>
      <trkpt lat="44.48987" lon="4.05708">
        <ele>416.868896</ele>
        <time>2012-04-16T10:44:17Z</time>
      </trkpt>
      <trkpt lat="44.49005" lon="4.05738">
        <ele>415.907471</ele>
        <time>2012-04-16T10:44:52Z</time>
      </trkpt>
      <trkpt lat="44.49028" lon="4.05772">
        <ele>415.42688</ele>
        <time>2012-04-16T10:45:25Z</time>
      </trkpt>
      <trkpt lat="44.49049" lon="4.05768">
        <ele>414.946167</ele>
        <time>2012-04-16T10:45:56Z</time>
      </trkpt>
      <trkpt lat="44.4908" lon="4.05784">
        <ele>414.465454</ele>
        <time>2012-04-16T10:46:31Z</time>
      </trkpt>
      <trkpt lat="44.49102" lon="4.05843">
        <ele>413.984863</ele>
        <time>2012-04-16T10:47:05Z</time>
      </trkpt>
      <trkpt lat="44.49115" lon="4.05858">
        <ele>419.752808</ele>
        <time>2012-04-16T10:47:28Z</time>
      </trkpt>
      <trkpt lat="44.49121" lon="4.05866">
        <ele>423.117432</ele>
        <time>2012-04-16T10:47:43Z</time>
      </trkpt>
      <trkpt lat="44.49132" lon="4.05865">
        <ele>423.117432</ele>
        <time>2012-04-16T10:47:55Z</time>
      </trkpt>
      <trkpt lat="44.49127" lon="4.05865">
        <ele>426.001343</ele>
        <time>2012-04-16T10:48:12Z</time>
      </trkpt>
      <trkpt lat="44.49126" lon="4.05867">
        <ele>427.92395</ele>
        <time>2012-04-16T10:48:47Z</time>
      </trkpt>
      <trkpt lat="44.49139" lon="4.05867">
        <ele>429.846558</ele>
        <time>2012-04-16T10:50:11Z</time>
      </trkpt>
      <trkpt lat="44.49146" lon="4.05867">
        <ele>432.25</ele>
        <time>2012-04-16T10:50:44Z</time>
      </trkpt>
      <trkpt lat="44.49167" lon="4.05879">
        <ele>437.056519</ele>
        <time>2012-04-16T10:51:01Z</time>
      </trkpt>
      <trkpt lat="44.49169" lon="4.05897">
        <ele>438.498535</ele>
        <time>2012-04-16T10:51:22Z</time>
      </trkpt>
      <trkpt lat="44.49171" lon="4.05914">
        <ele>440.901855</ele>
        <time>2012-04-16T10:51:47Z</time>
      </trkpt>
      <trkpt lat="44.49188" lon="4.05913">
        <ele>441.863159</ele>
        <time>2012-04-16T10:52:10Z</time>
      </trkpt>
      <trkpt lat="44.49177" lon="4.05931">
        <ele>443.785767</ele>
        <time>2012-04-16T10:52:36Z</time>
      </trkpt>
      <trkpt lat="44.49163" lon="4.05943">
        <ele>446.189087</ele>
        <time>2012-04-16T10:52:58Z</time>
      </trkpt>
      <trkpt lat="44.49158" lon="4.05946">
        <ele>447.150269</ele>
        <time>2012-04-16T10:53:06Z</time>
      </trkpt>
      <trkpt lat="44.49141" lon="4.05959">
        <ele>450.995605</ele>
        <time>2012-04-16T10:53:31Z</time>
      </trkpt>
      <trkpt lat="44.49142" lon="4.05961">
        <ele>456.76355</ele>
        <time>2012-04-16T10:53:49Z</time>
      </trkpt>
      <trkpt lat="44.49153" lon="4.05958">
        <ele>463.973389</ele>
        <time>2012-04-16T10:54:11Z</time>
      </trkpt>
      <trkpt lat="44.49147" lon="4.05968">
        <ele>470.221924</ele>
        <time>2012-04-16T10:54:50Z</time>
      </trkpt>
      <trkpt lat="44.49137" lon="4.05977">
        <ele>472.625366</ele>
        <time>2012-04-16T10:55:08Z</time>
      </trkpt>
      <trkpt lat="44.49124" lon="4.05992">
        <ele>477.431885</ele>
        <time>2012-04-16T10:55:35Z</time>
      </trkpt>
      <trkpt lat="44.49106" lon="4.05999">
        <ele>482.238525</ele>
        <time>2012-04-16T10:55:56Z</time>
      </trkpt>
      <trkpt lat="44.49099" lon="4.06004">
        <ele>485.122437</ele>
        <time>2012-04-16T10:56:12Z</time>
      </trkpt>
      <trkpt lat="44.49083" lon="4.06003">
        <ele>488.967773</ele>
        <time>2012-04-16T10:56:43Z</time>
      </trkpt>
      <trkpt lat="44.49061" lon="4.05996">
        <ele>496.658325</ele>
        <time>2012-04-16T10:57:00Z</time>
      </trkpt>
      <trkpt lat="44.49059" lon="4.05995">
        <ele>496.658325</ele>
        <time>2012-04-16T10:57:02Z</time>
      </trkpt>
      <trkpt lat="44.49042" lon="4.05985">
        <ele>514.442627</ele>
        <time>2012-04-16T10:57:18Z</time>
      </trkpt>
      <trkpt lat="44.49032" lon="4.05987">
        <ele>517.32666</ele>
        <time>2012-04-16T10:57:35Z</time>
      </trkpt>
      <trkpt lat="44.49018" lon="4.05987">
        <ele>523.575195</ele>
        <time>2012-04-16T10:57:56Z</time>
      </trkpt>
      <trkpt lat="44.49021" lon="4.05997">
        <ele>525.978394</ele>
        <time>2012-04-16T10:58:10Z</time>
      </trkpt>
      <trkpt lat="44.49033" lon="4.06005">
        <ele>524.055786</ele>
        <time>2012-04-16T10:58:30Z</time>
      </trkpt>
      <trkpt lat="44.49043" lon="4.06014">
        <ele>525.978394</ele>
        <time>2012-04-16T10:58:46Z</time>
      </trkpt>
      <trkpt lat="44.49057" lon="4.06027">
        <ele>529.82373</ele>
        <time>2012-04-16T10:59:07Z</time>
      </trkpt>
      <trkpt lat="44.49063" lon="4.06032">
        <ele>530.304443</ele>
        <time>2012-04-16T10:59:25Z</time>
      </trkpt>
      <trkpt lat="44.49064" lon="4.06042">
        <ele>530.304443</ele>
        <time>2012-04-16T10:59:39Z</time>
      </trkpt>
      <trkpt lat="44.49069" lon="4.06064">
        <ele>530.304443</ele>
        <time>2012-04-16T10:59:53Z</time>
      </trkpt>
      <trkpt lat="44.49069" lon="4.06061">
        <ele>529.82373</ele>
        <time>2012-04-16T11:00:09Z</time>
      </trkpt>
      <trkpt lat="44.49045" lon="4.06049">
        <ele>527.901001</ele>
        <time>2012-04-16T11:00:37Z</time>
      </trkpt>
      <trkpt lat="44.49028" lon="4.06053">
        <ele>525.978394</ele>
        <time>2012-04-16T11:01:11Z</time>
      </trkpt>
      <trkpt lat="44.48996" lon="4.06076">
        <ele>522.613892</ele>
        <time>2012-04-16T11:02:07Z</time>
      </trkpt>
      <trkpt lat="44.48972" lon="4.06087">
        <ele>519.249268</ele>
        <time>2012-04-16T11:02:58Z</time>
      </trkpt>
      <trkpt lat="44.4895" lon="4.06102">
        <ele>517.807251</ele>
        <time>2012-04-16T11:03:33Z</time>
      </trkpt>
      <trkpt lat="44.48943" lon="4.06099">
        <ele>519.249268</ele>
        <time>2012-04-16T11:03:53Z</time>
      </trkpt>
      <trkpt lat="44.48929" lon="4.06093">
        <ele>520.210571</ele>
        <time>2012-04-16T11:04:11Z</time>
      </trkpt>
      <trkpt lat="44.48911" lon="4.06088">
        <ele>523.094604</ele>
        <time>2012-04-16T11:04:32Z</time>
      </trkpt>
      <trkpt lat="44.48902" lon="4.06089">
        <ele>526.939819</ele>
        <time>2012-04-16T11:04:45Z</time>
      </trkpt>
      <trkpt lat="44.48895" lon="4.06086">
        <ele>528.381836</ele>
        <time>2012-04-16T11:04:50Z</time>
      </trkpt>
      <trkpt lat="44.48891" lon="4.06084">
        <ele>529.82373</ele>
        <time>2012-04-16T11:04:54Z</time>
      </trkpt>
      <trkpt lat="44.48877" lon="4.06088">
        <ele>538.475708</ele>
        <time>2012-04-16T11:05:12Z</time>
      </trkpt>
      <trkpt lat="44.48865" lon="4.0608">
        <ele>545.685547</ele>
        <time>2012-04-16T11:05:28Z</time>
      </trkpt>
      <trkpt lat="44.48855" lon="4.06069">
        <ele>553.856689</ele>
        <time>2012-04-16T11:05:45Z</time>
      </trkpt>
      <trkpt lat="44.48846" lon="4.06067">
        <ele>560.585938</ele>
        <time>2012-04-16T11:06:01Z</time>
      </trkpt>
      <trkpt lat="44.48839" lon="4.06063">
        <ele>563.469971</ele>
        <time>2012-04-16T11:06:14Z</time>
      </trkpt>
      <trkpt lat="44.48828" lon="4.06063">
        <ele>568.276367</ele>
        <time>2012-04-16T11:06:31Z</time>
      </trkpt>
      <trkpt lat="44.48814" lon="4.06053">
        <ele>576.447754</ele>
        <time>2012-04-16T11:06:49Z</time>
      </trkpt>
      <trkpt lat="44.48803" lon="4.06041">
        <ele>579.812256</ele>
        <time>2012-04-16T11:07:07Z</time>
      </trkpt>
      <trkpt lat="44.48793" lon="4.06031">
        <ele>584.138184</ele>
        <time>2012-04-16T11:07:20Z</time>
      </trkpt>
      <trkpt lat="44.48783" lon="4.06029">
        <ele>589.425537</ele>
        <time>2012-04-16T11:07:34Z</time>
      </trkpt>
      <trkpt lat="44.48774" lon="4.06028">
        <ele>591.828857</ele>
        <time>2012-04-16T11:07:47Z</time>
      </trkpt>
      <trkpt lat="44.48767" lon="4.06024">
        <ele>592.790283</ele>
        <time>2012-04-16T11:07:57Z</time>
      </trkpt>
      <trkpt lat="44.48762" lon="4.06026">
        <ele>596.154785</ele>
        <time>2012-04-16T11:08:13Z</time>
      </trkpt>
      <trkpt lat="44.48771" lon="4.06031">
        <ele>593.751465</ele>
        <time>2012-04-16T11:08:25Z</time>
      </trkpt>
      <trkpt lat="44.48777" lon="4.06039">
        <ele>593.270752</ele>
        <time>2012-04-16T11:08:38Z</time>
      </trkpt>
      <trkpt lat="44.48787" lon="4.06049">
        <ele>594.712646</ele>
        <time>2012-04-16T11:08:50Z</time>
      </trkpt>
      <trkpt lat="44.48791" lon="4.06059">
        <ele>594.712646</ele>
        <time>2012-04-16T11:09:04Z</time>
      </trkpt>
      <trkpt lat="44.48788" lon="4.0606">
        <ele>594.712646</ele>
        <time>2012-04-16T11:09:32Z</time>
      </trkpt>
      <trkpt lat="44.48786" lon="4.06058">
        <ele>594.712646</ele>
        <time>2012-04-16T11:10:23Z</time>
      </trkpt>
      <trkpt lat="44.48772" lon="4.06056">
        <ele>591.828857</ele>
        <time>2012-04-16T11:11:15Z</time>
      </trkpt>
      <trkpt lat="44.48756" lon="4.06051">
        <ele>593.270752</ele>
        <time>2012-04-16T11:11:35Z</time>
      </trkpt>
      <trkpt lat="44.48747" lon="4.06055">
        <ele>595.193359</ele>
        <time>2012-04-16T11:11:54Z</time>
      </trkpt>
      <trkpt lat="44.48734" lon="4.06045">
        <ele>597.115967</ele>
        <time>2012-04-16T11:12:12Z</time>
      </trkpt>
      <trkpt lat="44.48719" lon="4.06043">
        <ele>599.038574</ele>
        <time>2012-04-16T11:12:32Z</time>
      </trkpt>
      <trkpt lat="44.48711" lon="4.06035">
        <ele>601.922607</ele>
        <time>2012-04-16T11:12:50Z</time>
      </trkpt>
      <trkpt lat="44.48698" lon="4.06026">
        <ele>607.209961</ele>
        <time>2012-04-16T11:13:08Z</time>
      </trkpt>
      <trkpt lat="44.48687" lon="4.06019">
        <ele>608.171387</ele>
        <time>2012-04-16T11:13:28Z</time>
      </trkpt>
      <trkpt lat="44.48677" lon="4.06016">
        <ele>611.535889</ele>
        <time>2012-04-16T11:13:46Z</time>
      </trkpt>
      <trkpt lat="44.48677" lon="4.06017">
        <ele>611.055176</ele>
        <time>2012-04-16T11:14:37Z</time>
      </trkpt>
      <trkpt lat="44.48667" lon="4.06019">
        <ele>609.613281</ele>
        <time>2012-04-16T11:15:06Z</time>
      </trkpt>
      <trkpt lat="44.48662" lon="4.0603">
        <ele>609.132568</ele>
        <time>2012-04-16T11:15:32Z</time>
      </trkpt>
      <trkpt lat="44.4867" lon="4.06035">
        <ele>609.613281</ele>
        <time>2012-04-16T11:15:50Z</time>
      </trkpt>
      <trkpt lat="44.48673" lon="4.06035">
        <ele>613.938965</ele>
        <time>2012-04-16T11:16:09Z</time>
      </trkpt>
      <trkpt lat="44.48677" lon="4.06033">
        <ele>612.977783</ele>
        <time>2012-04-16T11:16:36Z</time>
      </trkpt>
      <trkpt lat="44.48676" lon="4.06032">
        <ele>613.458496</ele>
        <time>2012-04-16T11:16:55Z</time>
      </trkpt>
      <trkpt lat="44.48675" lon="4.06033">
        <ele>616.342285</ele>
        <time>2012-04-16T11:17:50Z</time>
      </trkpt>
      <trkpt lat="44.48674" lon="4.06039">
        <ele>616.822998</ele>
        <time>2012-04-16T11:18:07Z</time>
      </trkpt>
      <trkpt lat="44.48676" lon="4.06037">
        <ele>617.303711</ele>
        <time>2012-04-16T11:18:47Z</time>
      </trkpt>
      <trkpt lat="44.48671" lon="4.06041">
        <ele>618.745605</ele>
        <time>2012-04-16T11:20:21Z</time>
      </trkpt>
      <trkpt lat="44.48671" lon="4.06044">
        <ele>618.745605</ele>
        <time>2012-04-16T11:21:28Z</time>
      </trkpt>
      <trkpt lat="44.48673" lon="4.0605">
        <ele>619.707031</ele>
        <time>2012-04-16T11:21:41Z</time>
      </trkpt>
      <trkpt lat="44.48674" lon="4.06068">
        <ele>619.226318</ele>
        <time>2012-04-16T11:22:12Z</time>
      </trkpt>
      <trkpt lat="44.48673" lon="4.06078">
        <ele>619.707031</ele>
        <time>2012-04-16T11:22:55Z</time>
      </trkpt>
      <trkpt lat="44.48679" lon="4.06091">
        <ele>620.187744</ele>
        <time>2012-04-16T11:23:32Z</time>
      </trkpt>
      <trkpt lat="44.48681" lon="4.06095">
        <ele>621.629639</ele>
        <time>2012-04-16T11:23:57Z</time>
      </trkpt>
      <trkpt lat="44.48681" lon="4.06096">
        <ele>623.071777</ele>
        <time>2012-04-16T11:24:30Z</time>
      </trkpt>
      <trkpt lat="44.4868" lon="4.06092">
        <ele>623.55249</ele>
        <time>2012-04-16T11:24:52Z</time>
      </trkpt>
      <trkpt lat="44.48672" lon="4.06093">
        <ele>626.916992</ele>
        <time>2012-04-16T11:25:11Z</time>
      </trkpt>
      <trkpt lat="44.48671" lon="4.06093">
        <ele>626.916992</ele>
        <time>2012-04-16T11:25:12Z</time>
      </trkpt>
      <trkpt lat="44.48667" lon="4.0609">
        <ele>625.955566</ele>
        <time>2012-04-16T11:25:30Z</time>
      </trkpt>
      <trkpt lat="44.4867" lon="4.06092">
        <ele>626.436279</ele>
        <time>2012-04-16T11:25:35Z</time>
      </trkpt>
      <trkpt lat="44.48673" lon="4.06092">
        <ele>623.55249</ele>
        <time>2012-04-16T11:25:53Z</time>
      </trkpt>
      <trkpt lat="44.48673" lon="4.06091">
        <ele>622.110352</ele>
        <time>2012-04-16T11:26:19Z</time>
      </trkpt>
      <trkpt lat="44.48673" lon="4.06091">
        <ele>622.110352</ele>
        <time>2012-04-16T11:26:34Z</time>
      </trkpt>
      <trkpt lat="44.48675" lon="4.06092">
        <ele>622.110352</ele>
        <time>2012-04-16T11:26:37Z</time>
      </trkpt>
      <trkpt lat="44.4869" lon="4.06108">
        <ele>623.55249</ele>
        <time>2012-04-16T11:26:57Z</time>
      </trkpt>
      <trkpt lat="44.48692" lon="4.06124">
        <ele>630.281494</ele>
        <time>2012-04-16T11:27:15Z</time>
      </trkpt>
      <trkpt lat="44.4869" lon="4.0613">
        <ele>631.723389</ele>
        <time>2012-04-16T11:27:24Z</time>
      </trkpt>
      <trkpt lat="44.48683" lon="4.06145">
        <ele>635.568604</ele>
        <time>2012-04-16T11:27:38Z</time>
      </trkpt>
      <trkpt lat="44.48684" lon="4.06145">
        <ele>638.452881</ele>
        <time>2012-04-16T11:28:00Z</time>
      </trkpt>
      <trkpt lat="44.48685" lon="4.06157">
        <ele>639.894775</ele>
        <time>2012-04-16T11:28:20Z</time>
      </trkpt>
      <trkpt lat="44.48686" lon="4.06164">
        <ele>641.33667</ele>
        <time>2012-04-16T11:28:40Z</time>
      </trkpt>
      <trkpt lat="44.48692" lon="4.06161">
        <ele>644.701172</ele>
        <time>2012-04-16T11:29:00Z</time>
      </trkpt>
      <trkpt lat="44.48718" lon="4.06158">
        <ele>649.988525</ele>
        <time>2012-04-16T11:29:33Z</time>
      </trkpt>
      <trkpt lat="44.48729" lon="4.0617">
        <ele>653.353271</ele>
        <time>2012-04-16T11:30:01Z</time>
      </trkpt>
      <trkpt lat="44.48713" lon="4.06175">
        <ele>656.717773</ele>
        <time>2012-04-16T11:30:27Z</time>
      </trkpt>
      <trkpt lat="44.48711" lon="4.06176">
        <ele>656.717773</ele>
        <time>2012-04-16T11:30:47Z</time>
      </trkpt>
      <trkpt lat="44.48709" lon="4.06181">
        <ele>657.198486</ele>
        <time>2012-04-16T11:31:00Z</time>
      </trkpt>
      <trkpt lat="44.4871" lon="4.0621">
        <ele>656.717773</ele>
        <time>2012-04-16T11:31:34Z</time>
      </trkpt>
      <trkpt lat="44.48712" lon="4.06212">
        <ele>657.198486</ele>
        <time>2012-04-16T11:31:46Z</time>
      </trkpt>
      <trkpt lat="44.48717" lon="4.06206">
        <ele>657.679199</ele>
        <time>2012-04-16T11:32:03Z</time>
      </trkpt>
      <trkpt lat="44.4872" lon="4.06215">
        <ele>658.640381</ele>
        <time>2012-04-16T11:32:16Z</time>
      </trkpt>
      <trkpt lat="44.48723" lon="4.06225">
        <ele>658.640381</ele>
        <time>2012-04-16T11:32:31Z</time>
      </trkpt>
      <trkpt lat="44.48726" lon="4.06233">
        <ele>661.043701</ele>
        <time>2012-04-16T11:32:43Z</time>
      </trkpt>
      <trkpt lat="44.48731" lon="4.06242">
        <ele>664.408203</ele>
        <time>2012-04-16T11:32:59Z</time>
      </trkpt>
      <trkpt lat="44.48744" lon="4.06248">
        <ele>666.330811</ele>
        <time>2012-04-16T11:33:17Z</time>
      </trkpt>
      <trkpt lat="44.48752" lon="4.06254">
        <ele>667.772705</ele>
        <time>2012-04-16T11:33:32Z</time>
      </trkpt>
      <trkpt lat="44.48759" lon="4.06265">
        <ele>668.253662</ele>
        <time>2012-04-16T11:33:48Z</time>
      </trkpt>
      <trkpt lat="44.48765" lon="4.06269">
        <ele>670.656982</ele>
        <time>2012-04-16T11:34:02Z</time>
      </trkpt>
      <trkpt lat="44.48762" lon="4.06263">
        <ele>672.098877</ele>
        <time>2012-04-16T11:34:23Z</time>
      </trkpt>
      <trkpt lat="44.48761" lon="4.06254">
        <ele>672.098877</ele>
        <time>2012-04-16T11:34:36Z</time>
      </trkpt>
      <trkpt lat="44.48762" lon="4.06247">
        <ele>672.57959</ele>
        <time>2012-04-16T11:34:54Z</time>
      </trkpt>
      <trkpt lat="44.48765" lon="4.06235">
        <ele>674.021484</ele>
        <time>2012-04-16T11:35:08Z</time>
      </trkpt>
      <trkpt lat="44.48781" lon="4.06242">
        <ele>677.38623</ele>
        <time>2012-04-16T11:35:34Z</time>
      </trkpt>
      <trkpt lat="44.48795" lon="4.06262">
        <ele>679.789307</ele>
        <time>2012-04-16T11:35:59Z</time>
      </trkpt>
      <trkpt lat="44.48808" lon="4.06269">
        <ele>682.192627</ele>
        <time>2012-04-16T11:36:24Z</time>
      </trkpt>
      <trkpt lat="44.48821" lon="4.06281">
        <ele>683.634521</ele>
        <time>2012-04-16T11:36:42Z</time>
      </trkpt>
      <trkpt lat="44.48838" lon="4.06301">
        <ele>684.596191</ele>
        <time>2012-04-16T11:37:10Z</time>
      </trkpt>
      <trkpt lat="44.4884" lon="4.06301">
        <ele>684.115479</ele>
        <time>2012-04-16T11:37:41Z</time>
      </trkpt>
      <trkpt lat="44.48852" lon="4.06303">
        <ele>685.557373</ele>
        <time>2012-04-16T11:38:01Z</time>
      </trkpt>
      <trkpt lat="44.48858" lon="4.06306">
        <ele>686.999268</ele>
        <time>2012-04-16T11:38:22Z</time>
      </trkpt>
      <trkpt lat="44.48859" lon="4.06308">
        <ele>688.441406</ele>
        <time>2012-04-16T11:38:40Z</time>
      </trkpt>
      <trkpt lat="44.4886" lon="4.06309">
        <ele>690.364014</ele>
        <time>2012-04-16T11:39:03Z</time>
      </trkpt>
      <trkpt lat="44.4886" lon="4.0631">
        <ele>690.364014</ele>
        <time>2012-04-16T11:39:06Z</time>
      </trkpt>
      <trkpt lat="44.48867" lon="4.0632">
        <ele>690.844482</ele>
        <time>2012-04-16T11:39:23Z</time>
      </trkpt>
      <trkpt lat="44.48869" lon="4.06321">
        <ele>691.325195</ele>
        <time>2012-04-16T11:39:34Z</time>
      </trkpt>
      <trkpt lat="44.48876" lon="4.06319">
        <ele>695.17041</ele>
        <time>2012-04-16T11:39:48Z</time>
      </trkpt>
      <trkpt lat="44.48885" lon="4.06327">
        <ele>697.57373</ele>
        <time>2012-04-16T11:40:00Z</time>
      </trkpt>
      <trkpt lat="44.48885" lon="4.06326">
        <ele>697.093018</ele>
        <time>2012-04-16T11:40:16Z</time>
      </trkpt>
      <trkpt lat="44.48899" lon="4.06327">
        <ele>698.534912</ele>
        <time>2012-04-16T11:40:36Z</time>
      </trkpt>
      <trkpt lat="44.48915" lon="4.0633">
        <ele>700.458008</ele>
        <time>2012-04-16T11:41:04Z</time>
      </trkpt>
      <trkpt lat="44.48927" lon="4.0634">
        <ele>700.458008</ele>
        <time>2012-04-16T11:41:27Z</time>
      </trkpt>
      <trkpt lat="44.48932" lon="4.06346">
        <ele>700.938477</ele>
        <time>2012-04-16T11:41:43Z</time>
      </trkpt>
      <trkpt lat="44.48937" lon="4.06355">
        <ele>701.419189</ele>
        <time>2012-04-16T11:41:53Z</time>
      </trkpt>
      <trkpt lat="44.4895" lon="4.06372">
        <ele>702.861084</ele>
        <time>2012-04-16T11:42:09Z</time>
      </trkpt>
      <trkpt lat="44.48961" lon="4.0638">
        <ele>705.264404</ele>
        <time>2012-04-16T11:42:23Z</time>
      </trkpt>
      <trkpt lat="44.48971" lon="4.0639">
        <ele>706.225586</ele>
        <time>2012-04-16T11:42:39Z</time>
      </trkpt>
      <trkpt lat="44.48976" lon="4.06389">
        <ele>706.225586</ele>
        <time>2012-04-16T11:42:46Z</time>
      </trkpt>
      <trkpt lat="44.48979" lon="4.0639">
        <ele>706.225586</ele>
        <time>2012-04-16T11:42:49Z</time>
      </trkpt>
      <trkpt lat="44.49" lon="4.06398">
        <ele>708.628906</ele>
        <time>2012-04-16T11:43:12Z</time>
      </trkpt>
      <trkpt lat="44.48991" lon="4.06402">
        <ele>712.954834</ele>
        <time>2012-04-16T11:43:27Z</time>
      </trkpt>
      <trkpt lat="44.48977" lon="4.06411">
        <ele>719.203613</ele>
        <time>2012-04-16T11:43:54Z</time>
      </trkpt>
      <trkpt lat="44.48996" lon="4.0642">
        <ele>721.126221</ele>
        <time>2012-04-16T11:44:22Z</time>
      </trkpt>
      <trkpt lat="44.48983" lon="4.06431">
        <ele>722.568115</ele>
        <time>2012-04-16T11:44:44Z</time>
      </trkpt>
      <trkpt lat="44.4896" lon="4.06429">
        <ele>723.529541</ele>
        <time>2012-04-16T11:45:13Z</time>
      </trkpt>
      <trkpt lat="44.48935" lon="4.06426">
        <ele>724.490723</ele>
        <time>2012-04-16T11:45:43Z</time>
      </trkpt>
      <trkpt lat="44.48909" lon="4.06416">
        <ele>724.490723</ele>
        <time>2012-04-16T11:46:13Z</time>
      </trkpt>
      <trkpt lat="44.48897" lon="4.06421">
        <ele>724.490723</ele>
        <time>2012-04-16T11:46:36Z</time>
      </trkpt>
      <trkpt lat="44.4889" lon="4.06434">
        <ele>724.971436</ele>
        <time>2012-04-16T11:46:57Z</time>
      </trkpt>
      <trkpt lat="44.48897" lon="4.06463">
        <ele>723.048828</ele>
        <time>2012-04-16T11:47:32Z</time>
      </trkpt>
      <trkpt lat="44.48895" lon="4.06489">
        <ele>724.971436</ele>
        <time>2012-04-16T11:48:00Z</time>
      </trkpt>
      <trkpt lat="44.48907" lon="4.06516">
        <ele>727.374756</ele>
        <time>2012-04-16T11:48:23Z</time>
      </trkpt>
      <trkpt lat="44.48907" lon="4.0652">
        <ele>727.855225</ele>
        <time>2012-04-16T11:48:39Z</time>
      </trkpt>
      <trkpt lat="44.48913" lon="4.06525">
        <ele>727.855225</ele>
        <time>2012-04-16T11:48:54Z</time>
      </trkpt>
      <trkpt lat="44.48915" lon="4.06531">
        <ele>727.855225</ele>
        <time>2012-04-16T11:49:24Z</time>
      </trkpt>
      <trkpt lat="44.48903" lon="4.06532">
        <ele>727.374756</ele>
        <time>2012-04-16T11:49:51Z</time>
      </trkpt>
      <trkpt lat="44.48903" lon="4.06532">
        <ele>727.855225</ele>
        <time>2012-04-16T11:51:00Z</time>
      </trkpt>
      <trkpt lat="44.489" lon="4.06536">
        <ele>733.142578</ele>
        <time>2012-04-16T12:07:35Z</time>
      </trkpt>
      <trkpt lat="44.48902" lon="4.06534">
        <ele>733.142578</ele>
        <time>2012-04-16T12:08:33Z</time>
      </trkpt>
      <trkpt lat="44.48902" lon="4.06534">
        <ele>734.584717</ele>
        <time>2012-04-16T12:09:54Z</time>
      </trkpt>
      <trkpt lat="44.48901" lon="4.06535">
        <ele>738.429932</ele>
        <time>2012-04-16T12:33:00Z</time>
      </trkpt>
      <trkpt lat="44.48901" lon="4.06535">
        <ele>738.910645</ele>
        <time>2012-04-16T12:40:19Z</time>
      </trkpt>
      <trkpt lat="44.489" lon="4.06535">
        <ele>738.910645</ele>
        <time>2012-04-16T12:42:33Z</time>
      </trkpt>
      <trkpt lat="44.48901" lon="4.06533">
        <ele>738.910645</ele>
        <time>2012-04-16T12:42:57Z</time>
      </trkpt>
      <trkpt lat="44.48902" lon="4.0653">
        <ele>739.391113</ele>
        <time>2012-04-16T12:43:16Z</time>
      </trkpt>
      <trkpt lat="44.48902" lon="4.0653">
        <ele>740.352539</ele>
        <time>2012-04-16T12:43:49Z</time>
      </trkpt>
      <trkpt lat="44.48903" lon="4.06532">
        <ele>742.275146</ele>
        <time>2012-04-16T12:44:27Z</time>
      </trkpt>
      <trkpt lat="44.48903" lon="4.06529">
        <ele>742.755859</ele>
        <time>2012-04-16T12:45:32Z</time>
      </trkpt>
      <trkpt lat="44.48909" lon="4.06533">
        <ele>742.755859</ele>
        <time>2012-04-16T12:45:50Z</time>
      </trkpt>
      <trkpt lat="44.48916" lon="4.06527">
        <ele>742.755859</ele>
        <time>2012-04-16T12:46:07Z</time>
      </trkpt>
      <trkpt lat="44.48915" lon="4.06526">
        <ele>743.717041</ele>
        <time>2012-04-16T12:46:28Z</time>
      </trkpt>
      <trkpt lat="44.4892" lon="4.06526">
        <ele>744.678223</ele>
        <time>2012-04-16T12:46:58Z</time>
      </trkpt>
      <trkpt lat="44.48933" lon="4.06523">
        <ele>747.562256</ele>
        <time>2012-04-16T12:47:14Z</time>
      </trkpt>
      <trkpt lat="44.48938" lon="4.06514">
        <ele>749.96582</ele>
        <time>2012-04-16T12:47:26Z</time>
      </trkpt>
      <trkpt lat="44.48949" lon="4.06511">
        <ele>752.849609</ele>
        <time>2012-04-16T12:47:39Z</time>
      </trkpt>
      <trkpt lat="44.48956" lon="4.06512">
        <ele>753.330322</ele>
        <time>2012-04-16T12:47:48Z</time>
      </trkpt>
      <trkpt lat="44.48967" lon="4.06508">
        <ele>755.25293</ele>
        <time>2012-04-16T12:48:02Z</time>
      </trkpt>
      <trkpt lat="44.48978" lon="4.06508">
        <ele>756.694824</ele>
        <time>2012-04-16T12:48:16Z</time>
      </trkpt>
      <trkpt lat="44.4898" lon="4.06505">
        <ele>757.65625</ele>
        <time>2012-04-16T12:48:34Z</time>
      </trkpt>
      <trkpt lat="44.48989" lon="4.06508">
        <ele>756.214111</ele>
        <time>2012-04-16T12:49:00Z</time>
      </trkpt>
      <trkpt lat="44.49002" lon="4.06516">
        <ele>754.772217</ele>
        <time>2012-04-16T12:49:16Z</time>
      </trkpt>
      <trkpt lat="44.49016" lon="4.06518">
        <ele>754.772217</ele>
        <time>2012-04-16T12:49:32Z</time>
      </trkpt>
      <trkpt lat="44.49023" lon="4.06519">
        <ele>755.733643</ele>
        <time>2012-04-16T12:49:40Z</time>
      </trkpt>
      <trkpt lat="44.4904" lon="4.06523">
        <ele>757.175537</ele>
        <time>2012-04-16T12:49:59Z</time>
      </trkpt>
      <trkpt lat="44.49055" lon="4.06526">
        <ele>766.788818</ele>
        <time>2012-04-16T12:50:17Z</time>
      </trkpt>
      <trkpt lat="44.4907" lon="4.06529">
        <ele>768.711426</ele>
        <time>2012-04-16T12:50:33Z</time>
      </trkpt>
      <trkpt lat="44.49084" lon="4.06534">
        <ele>771.595215</ele>
        <time>2012-04-16T12:50:48Z</time>
      </trkpt>
      <trkpt lat="44.49098" lon="4.06535">
        <ele>771.595215</ele>
        <time>2012-04-16T12:51:01Z</time>
      </trkpt>
      <trkpt lat="44.49112" lon="4.06541">
        <ele>770.15332</ele>
        <time>2012-04-16T12:51:16Z</time>
      </trkpt>
      <trkpt lat="44.49121" lon="4.06546">
        <ele>771.595215</ele>
        <time>2012-04-16T12:51:31Z</time>
      </trkpt>
      <trkpt lat="44.49134" lon="4.06545">
        <ele>771.114746</ele>
        <time>2012-04-16T12:51:45Z</time>
      </trkpt>
      <trkpt lat="44.49141" lon="4.06543">
        <ele>772.075928</ele>
        <time>2012-04-16T12:51:52Z</time>
      </trkpt>
      <trkpt lat="44.4915" lon="4.06546">
        <ele>770.15332</ele>
        <time>2012-04-16T12:52:04Z</time>
      </trkpt>
      <trkpt lat="44.49154" lon="4.06546">
        <ele>769.672852</ele>
        <time>2012-04-16T12:52:19Z</time>
      </trkpt>
      <trkpt lat="44.49154" lon="4.06541">
        <ele>770.634033</ele>
        <time>2012-04-16T12:52:24Z</time>
      </trkpt>
      <trkpt lat="44.49156" lon="4.06533">
        <ele>772.556641</ele>
        <time>2012-04-16T12:52:42Z</time>
      </trkpt>
      <trkpt lat="44.49152" lon="4.06547">
        <ele>770.634033</ele>
        <time>2012-04-16T12:54:33Z</time>
      </trkpt>
      <trkpt lat="44.49151" lon="4.06553">
        <ele>769.672852</ele>
        <time>2012-04-16T12:54:35Z</time>
      </trkpt>
      <trkpt lat="44.49161" lon="4.0656">
        <ele>771.595215</ele>
        <time>2012-04-16T12:54:48Z</time>
      </trkpt>
      <trkpt lat="44.49174" lon="4.0657">
        <ele>770.15332</ele>
        <time>2012-04-16T12:55:03Z</time>
      </trkpt>
      <trkpt lat="44.49175" lon="4.06571">
        <ele>770.15332</ele>
        <time>2012-04-16T12:55:05Z</time>
      </trkpt>
      <trkpt lat="44.49183" lon="4.06572">
        <ele>771.595215</ele>
        <time>2012-04-16T12:55:22Z</time>
      </trkpt>
      <trkpt lat="44.49192" lon="4.06577">
        <ele>772.075928</ele>
        <time>2012-04-16T12:55:35Z</time>
      </trkpt>
      <trkpt lat="44.49201" lon="4.06589">
        <ele>768.711426</ele>
        <time>2012-04-16T12:55:51Z</time>
      </trkpt>
      <trkpt lat="44.49206" lon="4.06597">
        <ele>768.230713</ele>
        <time>2012-04-16T12:55:59Z</time>
      </trkpt>
      <trkpt lat="44.49209" lon="4.066">
        <ele>767.75</ele>
        <time>2012-04-16T12:56:02Z</time>
      </trkpt>
      <trkpt lat="44.49225" lon="4.06615">
        <ele>769.192139</ele>
        <time>2012-04-16T12:56:22Z</time>
      </trkpt>
      <trkpt lat="44.49239" lon="4.06628">
        <ele>773.518066</ele>
        <time>2012-04-16T12:56:40Z</time>
      </trkpt>
      <trkpt lat="44.49243" lon="4.06632">
        <ele>776.401855</ele>
        <time>2012-04-16T12:56:50Z</time>
      </trkpt>
      <trkpt lat="44.49251" lon="4.06634">
        <ele>780.728027</ele>
        <time>2012-04-16T12:57:04Z</time>
      </trkpt>
      <trkpt lat="44.49257" lon="4.06639">
        <ele>784.092529</ele>
        <time>2012-04-16T12:57:16Z</time>
      </trkpt>
      <trkpt lat="44.49258" lon="4.06641">
        <ele>783.131104</ele>
        <time>2012-04-16T12:57:19Z</time>
      </trkpt>
      <trkpt lat="44.49261" lon="4.06642">
        <ele>783.131104</ele>
        <time>2012-04-16T12:57:22Z</time>
      </trkpt>
      <trkpt lat="44.49269" lon="4.06641">
        <ele>785.053955</ele>
        <time>2012-04-16T12:57:35Z</time>
      </trkpt>
      <trkpt lat="44.49269" lon="4.06642">
        <ele>785.534424</ele>
        <time>2012-04-16T12:57:36Z</time>
      </trkpt>
      <trkpt lat="44.49273" lon="4.06643">
        <ele>786.976318</ele>
        <time>2012-04-16T12:57:44Z</time>
      </trkpt>
      <trkpt lat="44.49285" lon="4.06636">
        <ele>788.89917</ele>
        <time>2012-04-16T12:57:57Z</time>
      </trkpt>
      <trkpt lat="44.49296" lon="4.06635">
        <ele>788.418457</ele>
        <time>2012-04-16T12:58:11Z</time>
      </trkpt>
      <trkpt lat="44.49306" lon="4.06636">
        <ele>790.341064</ele>
        <time>2012-04-16T12:58:28Z</time>
      </trkpt>
      <trkpt lat="44.49319" lon="4.06637">
        <ele>792.744385</ele>
        <time>2012-04-16T12:58:49Z</time>
      </trkpt>
      <trkpt lat="44.49333" lon="4.0664">
        <ele>794.666748</ele>
        <time>2012-04-16T12:59:16Z</time>
      </trkpt>
      <trkpt lat="44.49341" lon="4.06647">
        <ele>795.628174</ele>
        <time>2012-04-16T12:59:35Z</time>
      </trkpt>
      <trkpt lat="44.49358" lon="4.06644">
        <ele>799.473633</ele>
        <time>2012-04-16T13:00:03Z</time>
      </trkpt>
      <trkpt lat="44.49363" lon="4.06645">
        <ele>800.435059</ele>
        <time>2012-04-16T13:00:22Z</time>
      </trkpt>
      <trkpt lat="44.49376" lon="4.06635">
        <ele>802.838135</ele>
        <time>2012-04-16T13:00:39Z</time>
      </trkpt>
      <trkpt lat="44.49383" lon="4.06642">
        <ele>807.644775</ele>
        <time>2012-04-16T13:01:14Z</time>
      </trkpt>
      <trkpt lat="44.494" lon="4.0664">
        <ele>812.451416</ele>
        <time>2012-04-16T13:01:46Z</time>
      </trkpt>
      <trkpt lat="44.49409" lon="4.0664">
        <ele>817.258057</ele>
        <time>2012-04-16T13:02:08Z</time>
      </trkpt>
      <trkpt lat="44.49417" lon="4.06647">
        <ele>820.141846</ele>
        <time>2012-04-16T13:02:27Z</time>
      </trkpt>
      <trkpt lat="44.49425" lon="4.06645">
        <ele>823.025879</ele>
        <time>2012-04-16T13:02:44Z</time>
      </trkpt>
      <trkpt lat="44.49436" lon="4.0663">
        <ele>826.871094</ele>
        <time>2012-04-16T13:03:06Z</time>
      </trkpt>
      <trkpt lat="44.49445" lon="4.06618">
        <ele>830.23584</ele>
        <time>2012-04-16T13:03:26Z</time>
      </trkpt>
      <trkpt lat="44.49457" lon="4.06616">
        <ele>831.677734</ele>
        <time>2012-04-16T13:03:41Z</time>
      </trkpt>
      <trkpt lat="44.49472" lon="4.06619">
        <ele>832.158447</ele>
        <time>2012-04-16T13:04:00Z</time>
      </trkpt>
      <trkpt lat="44.49477" lon="4.06621">
        <ele>834.081055</ele>
        <time>2012-04-16T13:04:06Z</time>
      </trkpt>
      <trkpt lat="44.49492" lon="4.06626">
        <ele>836.484375</ele>
        <time>2012-04-16T13:04:23Z</time>
      </trkpt>
      <trkpt lat="44.49501" lon="4.06622">
        <ele>836.964844</ele>
        <time>2012-04-16T13:04:35Z</time>
      </trkpt>
      <trkpt lat="44.49502" lon="4.06619">
        <ele>837.445557</ele>
        <time>2012-04-16T13:05:16Z</time>
      </trkpt>
      <trkpt lat="44.49503" lon="4.06621">
        <ele>836.964844</ele>
        <time>2012-04-16T13:05:43Z</time>
      </trkpt>
      <trkpt lat="44.49503" lon="4.06634">
        <ele>836.484375</ele>
        <time>2012-04-16T13:06:19Z</time>
      </trkpt>
      <trkpt lat="44.49514" lon="4.06618">
        <ele>835.522949</ele>
        <time>2012-04-16T13:06:38Z</time>
      </trkpt>
      <trkpt lat="44.4952" lon="4.06604">
        <ele>835.04248</ele>
        <time>2012-04-16T13:06:57Z</time>
      </trkpt>
      <trkpt lat="44.49531" lon="4.06585">
        <ele>834.561768</ele>
        <time>2012-04-16T13:07:15Z</time>
      </trkpt>
      <trkpt lat="44.49531" lon="4.06584">
        <ele>835.04248</ele>
        <time>2012-04-16T13:07:16Z</time>
      </trkpt>
      <trkpt lat="44.49544" lon="4.06579">
        <ele>835.04248</ele>
        <time>2012-04-16T13:07:29Z</time>
      </trkpt>
      <trkpt lat="44.49561" lon="4.0658">
        <ele>835.04248</ele>
        <time>2012-04-16T13:07:47Z</time>
      </trkpt>
      <trkpt lat="44.49563" lon="4.06582">
        <ele>835.04248</ele>
        <time>2012-04-16T13:07:58Z</time>
      </trkpt>
      <trkpt lat="44.4957" lon="4.06584">
        <ele>836.484375</ele>
        <time>2012-04-16T13:08:05Z</time>
      </trkpt>
      <trkpt lat="44.49585" lon="4.06587">
        <ele>836.964844</ele>
        <time>2012-04-16T13:08:22Z</time>
      </trkpt>
      <trkpt lat="44.49599" lon="4.06587">
        <ele>839.848877</ele>
        <time>2012-04-16T13:08:33Z</time>
      </trkpt>
      <trkpt lat="44.49614" lon="4.0659">
        <ele>842.252197</ele>
        <time>2012-04-16T13:08:48Z</time>
      </trkpt>
      <trkpt lat="44.49617" lon="4.06591">
        <ele>842.73291</ele>
        <time>2012-04-16T13:08:50Z</time>
      </trkpt>
      <trkpt lat="44.4963" lon="4.06591">
        <ele>846.097656</ele>
        <time>2012-04-16T13:09:01Z</time>
      </trkpt>
      <trkpt lat="44.49646" lon="4.06598">
        <ele>847.058838</ele>
        <time>2012-04-16T13:09:19Z</time>
      </trkpt>
      <trkpt lat="44.49659" lon="4.06599">
        <ele>850.423584</ele>
        <time>2012-04-16T13:09:36Z</time>
      </trkpt>
      <trkpt lat="44.49673" lon="4.06596">
        <ele>854.268799</ele>
        <time>2012-04-16T13:09:53Z</time>
      </trkpt>
      <trkpt lat="44.49674" lon="4.06596">
        <ele>854.268799</ele>
        <time>2012-04-16T13:09:54Z</time>
      </trkpt>
      <trkpt lat="44.49685" lon="4.066">
        <ele>855.22998</ele>
        <time>2012-04-16T13:10:16Z</time>
      </trkpt>
      <trkpt lat="44.497" lon="4.06608">
        <ele>858.114014</ele>
        <time>2012-04-16T13:10:36Z</time>
      </trkpt>
      <trkpt lat="44.49703" lon="4.0661">
        <ele>858.594482</ele>
        <time>2012-04-16T13:10:40Z</time>
      </trkpt>
      <trkpt lat="44.49713" lon="4.06614">
        <ele>860.517334</ele>
        <time>2012-04-16T13:10:49Z</time>
      </trkpt>
      <trkpt lat="44.49717" lon="4.06617">
        <ele>864.362549</ele>
        <time>2012-04-16T13:10:59Z</time>
      </trkpt>
      <trkpt lat="44.49732" lon="4.06625">
        <ele>863.881836</ele>
        <time>2012-04-16T13:11:15Z</time>
      </trkpt>
      <trkpt lat="44.49746" lon="4.06629">
        <ele>865.323975</ele>
        <time>2012-04-16T13:11:31Z</time>
      </trkpt>
      <trkpt lat="44.49756" lon="4.06635">
        <ele>866.765869</ele>
        <time>2012-04-16T13:11:46Z</time>
      </trkpt>
      <trkpt lat="44.49763" lon="4.06646">
        <ele>866.765869</ele>
        <time>2012-04-16T13:12:04Z</time>
      </trkpt>
      <trkpt lat="44.49768" lon="4.06656">
        <ele>865.804688</ele>
        <time>2012-04-16T13:12:14Z</time>
      </trkpt>
      <trkpt lat="44.49781" lon="4.06662">
        <ele>867.246582</ele>
        <time>2012-04-16T13:12:34Z</time>
      </trkpt>
      <trkpt lat="44.49792" lon="4.06657">
        <ele>868.207764</ele>
        <time>2012-04-16T13:12:49Z</time>
      </trkpt>
      <trkpt lat="44.49801" lon="4.06656">
        <ele>868.207764</ele>
        <time>2012-04-16T13:13:02Z</time>
      </trkpt>
      <trkpt lat="44.49811" lon="4.06657">
        <ele>868.688477</ele>
        <time>2012-04-16T13:13:16Z</time>
      </trkpt>
      <trkpt lat="44.49828" lon="4.06655">
        <ele>870.130371</ele>
        <time>2012-04-16T13:13:36Z</time>
      </trkpt>
      <trkpt lat="44.49843" lon="4.06655">
        <ele>872.533691</ele>
        <time>2012-04-16T13:13:56Z</time>
      </trkpt>
      <trkpt lat="44.49865" lon="4.06656">
        <ele>873.014404</ele>
        <time>2012-04-16T13:14:21Z</time>
      </trkpt>
      <trkpt lat="44.49891" lon="4.06659">
        <ele>873.014404</ele>
        <time>2012-04-16T13:14:47Z</time>
      </trkpt>
      <trkpt lat="44.49905" lon="4.0666">
        <ele>871.572266</ele>
        <time>2012-04-16T13:15:00Z</time>
      </trkpt>
      <trkpt lat="44.49915" lon="4.06664">
        <ele>870.611084</ele>
        <time>2012-04-16T13:15:13Z</time>
      </trkpt>
      <trkpt lat="44.49922" lon="4.06663">
        <ele>870.130371</ele>
        <time>2012-04-16T13:15:20Z</time>
      </trkpt>
      <trkpt lat="44.49941" lon="4.06666">
        <ele>869.649902</ele>
        <time>2012-04-16T13:15:34Z</time>
      </trkpt>
      <trkpt lat="44.49963" lon="4.06667">
        <ele>867.727051</ele>
        <time>2012-04-16T13:15:53Z</time>
      </trkpt>
      <trkpt lat="44.49981" lon="4.06667">
        <ele>865.804688</ele>
        <time>2012-04-16T13:16:10Z</time>
      </trkpt>
      <trkpt lat="44.49999" lon="4.06662">
        <ele>864.843262</ele>
        <time>2012-04-16T13:16:25Z</time>
      </trkpt>
      <trkpt lat="44.50006" lon="4.06659">
        <ele>864.843262</ele>
        <time>2012-04-16T13:16:35Z</time>
      </trkpt>
      <trkpt lat="44.5001" lon="4.06654">
        <ele>865.804688</ele>
        <time>2012-04-16T13:16:40Z</time>
      </trkpt>
      <trkpt lat="44.50025" lon="4.06642">
        <ele>868.688477</ele>
        <time>2012-04-16T13:16:57Z</time>
      </trkpt>
      <trkpt lat="44.50038" lon="4.06623">
        <ele>869.649902</ele>
        <time>2012-04-16T13:17:16Z</time>
      </trkpt>
      <trkpt lat="44.50052" lon="4.06607">
        <ele>871.572266</ele>
        <time>2012-04-16T13:17:32Z</time>
      </trkpt>
      <trkpt lat="44.50068" lon="4.06595">
        <ele>871.091797</ele>
        <time>2012-04-16T13:17:49Z</time>
      </trkpt>
      <trkpt lat="44.50085" lon="4.06585">
        <ele>873.495117</ele>
        <time>2012-04-16T13:18:06Z</time>
      </trkpt>
      <trkpt lat="44.5011" lon="4.06569">
        <ele>874.456299</ele>
        <time>2012-04-16T13:18:31Z</time>
      </trkpt>
      <trkpt lat="44.5013" lon="4.06559">
        <ele>875.898193</ele>
        <time>2012-04-16T13:18:50Z</time>
      </trkpt>
      <trkpt lat="44.50144" lon="4.06552">
        <ele>873.975586</ele>
        <time>2012-04-16T13:19:06Z</time>
      </trkpt>
      <trkpt lat="44.50161" lon="4.06544">
        <ele>874.937012</ele>
        <time>2012-04-16T13:19:25Z</time>
      </trkpt>
      <trkpt lat="44.5017" lon="4.06542">
        <ele>872.052979</ele>
        <time>2012-04-16T13:19:35Z</time>
      </trkpt>
      <trkpt lat="44.50182" lon="4.06541">
        <ele>875.41748</ele>
        <time>2012-04-16T13:19:49Z</time>
      </trkpt>
      <trkpt lat="44.50193" lon="4.06543">
        <ele>875.898193</ele>
        <time>2012-04-16T13:20:01Z</time>
      </trkpt>
      <trkpt lat="44.50203" lon="4.06555">
        <ele>875.898193</ele>
        <time>2012-04-16T13:20:15Z</time>
      </trkpt>
      <trkpt lat="44.5022" lon="4.06563">
        <ele>872.052979</ele>
        <time>2012-04-16T13:20:32Z</time>
      </trkpt>
      <trkpt lat="44.50235" lon="4.06574">
        <ele>872.533691</ele>
        <time>2012-04-16T13:20:52Z</time>
      </trkpt>
      <trkpt lat="44.50239" lon="4.06578">
        <ele>873.495117</ele>
        <time>2012-04-16T13:21:06Z</time>
      </trkpt>
      <trkpt lat="44.50244" lon="4.06574">
        <ele>872.533691</ele>
        <time>2012-04-16T13:21:20Z</time>
      </trkpt>
      <trkpt lat="44.50251" lon="4.06577">
        <ele>872.052979</ele>
        <time>2012-04-16T13:21:37Z</time>
      </trkpt>
      <trkpt lat="44.50269" lon="4.06576">
        <ele>872.533691</ele>
        <time>2012-04-16T13:21:55Z</time>
      </trkpt>
      <trkpt lat="44.50288" lon="4.06576">
        <ele>874.937012</ele>
        <time>2012-04-16T13:22:16Z</time>
      </trkpt>
      <trkpt lat="44.50304" lon="4.06566">
        <ele>876.37915</ele>
        <time>2012-04-16T13:22:32Z</time>
      </trkpt>
      <trkpt lat="44.50311" lon="4.06563">
        <ele>877.821045</ele>
        <time>2012-04-16T13:22:48Z</time>
      </trkpt>
      <trkpt lat="44.5031" lon="4.06574">
        <ele>875.41748</ele>
        <time>2012-04-16T13:23:11Z</time>
      </trkpt>
      <trkpt lat="44.50308" lon="4.06571">
        <ele>875.41748</ele>
        <time>2012-04-16T13:23:35Z</time>
      </trkpt>
      <trkpt lat="44.50308" lon="4.06566">
        <ele>876.37915</ele>
        <time>2012-04-16T13:23:39Z</time>
      </trkpt>
      <trkpt lat="44.50309" lon="4.06563">
        <ele>876.37915</ele>
        <time>2012-04-16T13:23:41Z</time>
      </trkpt>
      <trkpt lat="44.50307" lon="4.06555">
        <ele>876.37915</ele>
        <time>2012-04-16T13:23:57Z</time>
      </trkpt>
      <trkpt lat="44.50309" lon="4.06557">
        <ele>876.37915</ele>
        <time>2012-04-16T13:24:28Z</time>
      </trkpt>
      <trkpt lat="44.5031" lon="4.06559">
        <ele>876.859863</ele>
        <time>2012-04-16T13:25:21Z</time>
      </trkpt>
      <trkpt lat="44.50311" lon="4.06556">
        <ele>876.859863</ele>
        <time>2012-04-16T13:26:24Z</time>
      </trkpt>
      <trkpt lat="44.50315" lon="4.06566">
        <ele>877.340576</ele>
        <time>2012-04-16T13:26:59Z</time>
      </trkpt>
      <trkpt lat="44.50328" lon="4.06577">
        <ele>878.782471</ele>
        <time>2012-04-16T13:27:18Z</time>
      </trkpt>
      <trkpt lat="44.5033" lon="4.06579">
        <ele>879.262939</ele>
        <time>2012-04-16T13:27:20Z</time>
      </trkpt>
      <trkpt lat="44.50337" lon="4.06589">
        <ele>878.782471</ele>
        <time>2012-04-16T13:27:29Z</time>
      </trkpt>
      <trkpt lat="44.50338" lon="4.06593">
        <ele>878.782471</ele>
        <time>2012-04-16T13:27:32Z</time>
      </trkpt>
      <trkpt lat="44.5035" lon="4.06611">
        <ele>878.301758</ele>
        <time>2012-04-16T13:27:50Z</time>
      </trkpt>
      <trkpt lat="44.50356" lon="4.06613">
        <ele>878.301758</ele>
        <time>2012-04-16T13:27:58Z</time>
      </trkpt>
      <trkpt lat="44.50358" lon="4.06615">
        <ele>878.301758</ele>
        <time>2012-04-16T13:28:00Z</time>
      </trkpt>
      <trkpt lat="44.5036" lon="4.06616">
        <ele>878.301758</ele>
        <time>2012-04-16T13:28:02Z</time>
      </trkpt>
      <trkpt lat="44.50367" lon="4.06616">
        <ele>876.859863</ele>
        <time>2012-04-16T13:28:07Z</time>
      </trkpt>
      <trkpt lat="44.50376" lon="4.06621">
        <ele>877.821045</ele>
        <time>2012-04-16T13:28:25Z</time>
      </trkpt>
      <trkpt lat="44.50377" lon="4.0662">
        <ele>878.301758</ele>
        <time>2012-04-16T13:30:12Z</time>
      </trkpt>
      <trkpt lat="44.50378" lon="4.06617">
        <ele>878.782471</ele>
        <time>2012-04-16T13:30:51Z</time>
      </trkpt>
      <trkpt lat="44.50388" lon="4.06595">
        <ele>881.66626</ele>
        <time>2012-04-16T13:31:17Z</time>
      </trkpt>
      <trkpt lat="44.50386" lon="4.06592">
        <ele>880.705078</ele>
        <time>2012-04-16T13:31:24Z</time>
      </trkpt>
      <trkpt lat="44.50379" lon="4.06572">
        <ele>883.108154</ele>
        <time>2012-04-16T13:31:40Z</time>
      </trkpt>
      <trkpt lat="44.50367" lon="4.06537">
        <ele>885.992188</ele>
        <time>2012-04-16T13:32:04Z</time>
      </trkpt>
      <trkpt lat="44.50371" lon="4.06507">
        <ele>888.395508</ele>
        <time>2012-04-16T13:32:26Z</time>
      </trkpt>
      <trkpt lat="44.5037" lon="4.06499">
        <ele>888.876221</ele>
        <time>2012-04-16T13:32:31Z</time>
      </trkpt>
      <trkpt lat="44.50368" lon="4.06492">
        <ele>888.876221</ele>
        <time>2012-04-16T13:32:36Z</time>
      </trkpt>
      <trkpt lat="44.50368" lon="4.06486">
        <ele>889.356689</ele>
        <time>2012-04-16T13:32:40Z</time>
      </trkpt>
      <trkpt lat="44.5037" lon="4.06451">
        <ele>889.837402</ele>
        <time>2012-04-16T13:33:02Z</time>
      </trkpt>
      <trkpt lat="44.5038" lon="4.0642">
        <ele>890.798584</ele>
        <time>2012-04-16T13:33:23Z</time>
      </trkpt>
      <trkpt lat="44.50389" lon="4.06406">
        <ele>891.279297</ele>
        <time>2012-04-16T13:33:34Z</time>
      </trkpt>
      <trkpt lat="44.50407" lon="4.06375">
        <ele>890.318115</ele>
        <time>2012-04-16T13:33:59Z</time>
      </trkpt>
      <trkpt lat="44.50422" lon="4.06355">
        <ele>888.876221</ele>
        <time>2012-04-16T13:34:21Z</time>
      </trkpt>
      <trkpt lat="44.50435" lon="4.06336">
        <ele>885.992188</ele>
        <time>2012-04-16T13:34:38Z</time>
      </trkpt>
      <trkpt lat="44.50454" lon="4.06306">
        <ele>885.511475</ele>
        <time>2012-04-16T13:35:01Z</time>
      </trkpt>
      <trkpt lat="44.50473" lon="4.06278">
        <ele>885.031006</ele>
        <time>2012-04-16T13:35:25Z</time>
      </trkpt>
      <trkpt lat="44.50488" lon="4.06257">
        <ele>885.031006</ele>
        <time>2012-04-16T13:35:46Z</time>
      </trkpt>
      <trkpt lat="44.50493" lon="4.0625">
        <ele>882.146973</ele>
        <time>2012-04-16T13:36:02Z</time>
      </trkpt>
      <trkpt lat="44.50502" lon="4.06236">
        <ele>882.146973</ele>
        <time>2012-04-16T13:36:17Z</time>
      </trkpt>
      <trkpt lat="44.50525" lon="4.06202">
        <ele>882.146973</ele>
        <time>2012-04-16T13:36:42Z</time>
      </trkpt>
      <trkpt lat="44.50542" lon="4.06177">
        <ele>882.627686</ele>
        <time>2012-04-16T13:37:03Z</time>
      </trkpt>
      <trkpt lat="44.50561" lon="4.06143">
        <ele>882.627686</ele>
        <time>2012-04-16T13:37:27Z</time>
      </trkpt>
      <trkpt lat="44.50574" lon="4.06107">
        <ele>882.146973</ele>
        <time>2012-04-16T13:37:52Z</time>
      </trkpt>
      <trkpt lat="44.50579" lon="4.06076">
        <ele>883.108154</ele>
        <time>2012-04-16T13:38:12Z</time>
      </trkpt>
      <trkpt lat="44.5058" lon="4.06059">
        <ele>883.588867</ele>
        <time>2012-04-16T13:38:26Z</time>
      </trkpt>
      <trkpt lat="44.50568" lon="4.06058">
        <ele>883.588867</ele>
        <time>2012-04-16T13:38:42Z</time>
      </trkpt>
      <trkpt lat="44.50555" lon="4.06057">
        <ele>879.743652</ele>
        <time>2012-04-16T13:39:00Z</time>
      </trkpt>
      <trkpt lat="44.5054" lon="4.06052">
        <ele>874.937012</ele>
        <time>2012-04-16T13:39:24Z</time>
      </trkpt>
      <trkpt lat="44.50525" lon="4.06045">
        <ele>873.495117</ele>
        <time>2012-04-16T13:39:45Z</time>
      </trkpt>
      <trkpt lat="44.50509" lon="4.06044">
        <ele>869.649902</ele>
        <time>2012-04-16T13:40:07Z</time>
      </trkpt>
      <trkpt lat="44.50496" lon="4.06044">
        <ele>869.169189</ele>
        <time>2012-04-16T13:40:21Z</time>
      </trkpt>
      <trkpt lat="44.5048" lon="4.0604">
        <ele>866.765869</ele>
        <time>2012-04-16T13:40:39Z</time>
      </trkpt>
      <trkpt lat="44.50476" lon="4.0604">
        <ele>866.765869</ele>
        <time>2012-04-16T13:40:43Z</time>
      </trkpt>
      <trkpt lat="44.5047" lon="4.06039">
        <ele>865.804688</ele>
        <time>2012-04-16T13:40:49Z</time>
      </trkpt>
      <trkpt lat="44.50454" lon="4.06038">
        <ele>868.207764</ele>
        <time>2012-04-16T13:41:09Z</time>
      </trkpt>
      <trkpt lat="44.50452" lon="4.06036">
        <ele>868.207764</ele>
        <time>2012-04-16T13:41:11Z</time>
      </trkpt>
      <trkpt lat="44.50433" lon="4.06033">
        <ele>858.114014</ele>
        <time>2012-04-16T13:41:31Z</time>
      </trkpt>
      <trkpt lat="44.50411" lon="4.06028">
        <ele>850.423584</ele>
        <time>2012-04-16T13:41:53Z</time>
      </trkpt>
      <trkpt lat="44.5039" lon="4.06027">
        <ele>853.788086</ele>
        <time>2012-04-16T13:42:12Z</time>
      </trkpt>
      <trkpt lat="44.50368" lon="4.06023">
        <ele>850.904053</ele>
        <time>2012-04-16T13:42:34Z</time>
      </trkpt>
      <trkpt lat="44.50358" lon="4.06021">
        <ele>848.500732</ele>
        <time>2012-04-16T13:42:44Z</time>
      </trkpt>
      <trkpt lat="44.50339" lon="4.06016">
        <ele>848.500732</ele>
        <time>2012-04-16T13:43:02Z</time>
      </trkpt>
      <trkpt lat="44.50315" lon="4.0601">
        <ele>846.578369</ele>
        <time>2012-04-16T13:43:27Z</time>
      </trkpt>
      <trkpt lat="44.50311" lon="4.0601">
        <ele>845.616943</ele>
        <time>2012-04-16T13:43:31Z</time>
      </trkpt>
      <trkpt lat="44.50288" lon="4.06008">
        <ele>847.539551</ele>
        <time>2012-04-16T13:43:54Z</time>
      </trkpt>
      <trkpt lat="44.50267" lon="4.06007">
        <ele>845.13623</ele>
        <time>2012-04-16T13:44:14Z</time>
      </trkpt>
      <trkpt lat="44.50247" lon="4.06007">
        <ele>842.73291</ele>
        <time>2012-04-16T13:44:36Z</time>
      </trkpt>
      <trkpt lat="44.50225" lon="4.06006">
        <ele>842.252197</ele>
        <time>2012-04-16T13:44:58Z</time>
      </trkpt>
      <trkpt lat="44.50205" lon="4.06001">
        <ele>842.252197</ele>
        <time>2012-04-16T13:45:17Z</time>
      </trkpt>
      <trkpt lat="44.50183" lon="4.05985">
        <ele>836.964844</ele>
        <time>2012-04-16T13:45:45Z</time>
      </trkpt>
      <trkpt lat="44.50162" lon="4.05972">
        <ele>836.003662</ele>
        <time>2012-04-16T13:46:09Z</time>
      </trkpt>
      <trkpt lat="44.50143" lon="4.05963">
        <ele>834.081055</ele>
        <time>2012-04-16T13:46:30Z</time>
      </trkpt>
      <trkpt lat="44.50118" lon="4.05954">
        <ele>832.158447</ele>
        <time>2012-04-16T13:46:57Z</time>
      </trkpt>
      <trkpt lat="44.50098" lon="4.0595">
        <ele>828.793945</ele>
        <time>2012-04-16T13:47:18Z</time>
      </trkpt>
      <trkpt lat="44.50079" lon="4.05945">
        <ele>821.103271</ele>
        <time>2012-04-16T13:47:41Z</time>
      </trkpt>
      <trkpt lat="44.50074" lon="4.05943">
        <ele>812.932129</ele>
        <time>2012-04-16T13:47:58Z</time>
      </trkpt>
      <trkpt lat="44.50063" lon="4.0594">
        <ele>811.48999</ele>
        <time>2012-04-16T13:48:13Z</time>
      </trkpt>
      <trkpt lat="44.50052" lon="4.05925">
        <ele>809.08667</ele>
        <time>2012-04-16T13:48:35Z</time>
      </trkpt>
      <trkpt lat="44.50047" lon="4.0592">
        <ele>807.164063</ele>
        <time>2012-04-16T13:48:58Z</time>
      </trkpt>
      <trkpt lat="44.50041" lon="4.05917">
        <ele>805.241455</ele>
        <time>2012-04-16T13:49:41Z</time>
      </trkpt>
      <trkpt lat="44.50037" lon="4.05911">
        <ele>804.280273</ele>
        <time>2012-04-16T13:49:47Z</time>
      </trkpt>
      <trkpt lat="44.50028" lon="4.05896">
        <ele>800.915527</ele>
        <time>2012-04-16T13:50:05Z</time>
      </trkpt>
      <trkpt lat="44.50021" lon="4.05895">
        <ele>797.551025</ele>
        <time>2012-04-16T13:50:16Z</time>
      </trkpt>
      <trkpt lat="44.50022" lon="4.05893">
        <ele>798.99292</ele>
        <time>2012-04-16T13:50:31Z</time>
      </trkpt>
      <trkpt lat="44.50027" lon="4.05892">
        <ele>799.473633</ele>
        <time>2012-04-16T13:50:56Z</time>
      </trkpt>
      <trkpt lat="44.50026" lon="4.05892">
        <ele>798.99292</ele>
        <time>2012-04-16T13:52:11Z</time>
      </trkpt>
      <trkpt lat="44.50027" lon="4.05895">
        <ele>798.99292</ele>
        <time>2012-04-16T13:52:31Z</time>
      </trkpt>
      <trkpt lat="44.50027" lon="4.05892">
        <ele>798.512207</ele>
        <time>2012-04-16T13:53:58Z</time>
      </trkpt>
      <trkpt lat="44.50032" lon="4.05889">
        <ele>798.031738</ele>
        <time>2012-04-16T13:54:50Z</time>
      </trkpt>
      <trkpt lat="44.50043" lon="4.05864">
        <ele>794.666748</ele>
        <time>2012-04-16T13:55:17Z</time>
      </trkpt>
      <trkpt lat="44.50046" lon="4.05844">
        <ele>792.744385</ele>
        <time>2012-04-16T13:55:35Z</time>
      </trkpt>
      <trkpt lat="44.50044" lon="4.05827">
        <ele>790.821533</ele>
        <time>2012-04-16T13:56:01Z</time>
      </trkpt>
      <trkpt lat="44.50032" lon="4.05854">
        <ele>786.976318</ele>
        <time>2012-04-16T13:56:25Z</time>
      </trkpt>
      <trkpt lat="44.50033" lon="4.05837">
        <ele>785.053955</ele>
        <time>2012-04-16T13:56:43Z</time>
      </trkpt>
      <trkpt lat="44.5004" lon="4.05808">
        <ele>781.20874</ele>
        <time>2012-04-16T13:57:10Z</time>
      </trkpt>
      <trkpt lat="44.50051" lon="4.0578">
        <ele>778.324463</ele>
        <time>2012-04-16T13:57:37Z</time>
      </trkpt>
      <trkpt lat="44.50048" lon="4.05771">
        <ele>776.401855</ele>
        <time>2012-04-16T13:58:05Z</time>
      </trkpt>
      <trkpt lat="44.50034" lon="4.05791">
        <ele>772.556641</ele>
        <time>2012-04-16T13:58:37Z</time>
      </trkpt>
      <trkpt lat="44.50035" lon="4.05772">
        <ele>772.556641</ele>
        <time>2012-04-16T13:58:53Z</time>
      </trkpt>
      <trkpt lat="44.50034" lon="4.05763">
        <ele>770.634033</ele>
        <time>2012-04-16T13:59:05Z</time>
      </trkpt>
      <trkpt lat="44.50022" lon="4.05783">
        <ele>766.308105</ele>
        <time>2012-04-16T13:59:25Z</time>
      </trkpt>
      <trkpt lat="44.50014" lon="4.05797">
        <ele>760.540039</ele>
        <time>2012-04-16T13:59:43Z</time>
      </trkpt>
      <trkpt lat="44.50011" lon="4.05797">
        <ele>758.136963</ele>
        <time>2012-04-16T13:59:56Z</time>
      </trkpt>
      <trkpt lat="44.5001" lon="4.05779">
        <ele>759.098145</ele>
        <time>2012-04-16T14:00:11Z</time>
      </trkpt>
      <trkpt lat="44.5001" lon="4.05771">
        <ele>758.617432</ele>
        <time>2012-04-16T14:00:19Z</time>
      </trkpt>
      <trkpt lat="44.50012" lon="4.05749">
        <ele>756.214111</ele>
        <time>2012-04-16T14:00:37Z</time>
      </trkpt>
      <trkpt lat="44.50014" lon="4.0573">
        <ele>753.811035</ele>
        <time>2012-04-16T14:00:53Z</time>
      </trkpt>
      <trkpt lat="44.50018" lon="4.05713">
        <ele>754.291748</ele>
        <time>2012-04-16T14:01:09Z</time>
      </trkpt>
      <trkpt lat="44.50014" lon="4.05716">
        <ele>753.811035</ele>
        <time>2012-04-16T14:01:15Z</time>
      </trkpt>
      <trkpt lat="44.5" lon="4.05732">
        <ele>752.368896</ele>
        <time>2012-04-16T14:01:36Z</time>
      </trkpt>
      <trkpt lat="44.49996" lon="4.05731">
        <ele>750.446533</ele>
        <time>2012-04-16T14:01:52Z</time>
      </trkpt>
      <trkpt lat="44.49997" lon="4.05721">
        <ele>751.407715</ele>
        <time>2012-04-16T14:02:07Z</time>
      </trkpt>
      <trkpt lat="44.49998" lon="4.05713">
        <ele>750.446533</ele>
        <time>2012-04-16T14:02:35Z</time>
      </trkpt>
      <trkpt lat="44.50003" lon="4.05689">
        <ele>747.081543</ele>
        <time>2012-04-16T14:02:58Z</time>
      </trkpt>
      <trkpt lat="44.5001" lon="4.05662">
        <ele>746.601074</ele>
        <time>2012-04-16T14:03:22Z</time>
      </trkpt>
      <trkpt lat="44.50011" lon="4.05659">
        <ele>746.601074</ele>
        <time>2012-04-16T14:03:25Z</time>
      </trkpt>
      <trkpt lat="44.50011" lon="4.05644">
        <ele>743.236328</ele>
        <time>2012-04-16T14:03:40Z</time>
      </trkpt>
      <trkpt lat="44.50001" lon="4.0564">
        <ele>738.429932</ele>
        <time>2012-04-16T14:04:01Z</time>
      </trkpt>
      <trkpt lat="44.5" lon="4.05642">
        <ele>738.429932</ele>
        <time>2012-04-16T14:04:03Z</time>
      </trkpt>
      <trkpt lat="44.49994" lon="4.05663">
        <ele>738.910645</ele>
        <time>2012-04-16T14:04:22Z</time>
      </trkpt>
      <trkpt lat="44.49989" lon="4.05648">
        <ele>737.468506</ele>
        <time>2012-04-16T14:04:39Z</time>
      </trkpt>
      <trkpt lat="44.49978" lon="4.05627">
        <ele>735.545898</ele>
        <time>2012-04-16T14:05:00Z</time>
      </trkpt>
      <trkpt lat="44.49965" lon="4.05613">
        <ele>736.987793</ele>
        <time>2012-04-16T14:05:19Z</time>
      </trkpt>
      <trkpt lat="44.4996" lon="4.05598">
        <ele>728.81665</ele>
        <time>2012-04-16T14:05:39Z</time>
      </trkpt>
      <trkpt lat="44.49955" lon="4.05577">
        <ele>727.855225</ele>
        <time>2012-04-16T14:06:00Z</time>
      </trkpt>
      <trkpt lat="44.49953" lon="4.0556">
        <ele>725.932617</ele>
        <time>2012-04-16T14:06:15Z</time>
      </trkpt>
      <trkpt lat="44.49951" lon="4.05539">
        <ele>722.568115</ele>
        <time>2012-04-16T14:06:34Z</time>
      </trkpt>
      <trkpt lat="44.49955" lon="4.05525">
        <ele>721.606689</ele>
        <time>2012-04-16T14:06:50Z</time>
      </trkpt>
      <trkpt lat="44.49957" lon="4.05521">
        <ele>718.7229</ele>
        <time>2012-04-16T14:07:07Z</time>
      </trkpt>
      <trkpt lat="44.49953" lon="4.05528">
        <ele>713.435547</ele>
        <time>2012-04-16T14:07:24Z</time>
      </trkpt>
      <trkpt lat="44.49955" lon="4.05526">
        <ele>714.396729</ele>
        <time>2012-04-16T14:08:07Z</time>
      </trkpt>
      <trkpt lat="44.49961" lon="4.0552">
        <ele>714.396729</ele>
        <time>2012-04-16T14:08:25Z</time>
      </trkpt>
      <trkpt lat="44.49964" lon="4.05512">
        <ele>710.551514</ele>
        <time>2012-04-16T14:08:38Z</time>
      </trkpt>
      <trkpt lat="44.49965" lon="4.05511">
        <ele>710.070801</ele>
        <time>2012-04-16T14:09:13Z</time>
      </trkpt>
      <trkpt lat="44.49962" lon="4.05516">
        <ele>708.628906</ele>
        <time>2012-04-16T14:09:32Z</time>
      </trkpt>
      <trkpt lat="44.49957" lon="4.05503">
        <ele>704.783691</ele>
        <time>2012-04-16T14:09:49Z</time>
      </trkpt>
      <trkpt lat="44.49956" lon="4.05496">
        <ele>704.303223</ele>
        <time>2012-04-16T14:09:55Z</time>
      </trkpt>
      <trkpt lat="44.49955" lon="4.05494">
        <ele>703.82251</ele>
        <time>2012-04-16T14:09:57Z</time>
      </trkpt>
      <trkpt lat="44.4994" lon="4.05483">
        <ele>700.938477</ele>
        <time>2012-04-16T14:10:14Z</time>
      </trkpt>
      <trkpt lat="44.4993" lon="4.05482">
        <ele>695.651123</ele>
        <time>2012-04-16T14:10:28Z</time>
      </trkpt>
      <trkpt lat="44.49925" lon="4.05496">
        <ele>692.767334</ele>
        <time>2012-04-16T14:10:46Z</time>
      </trkpt>
      <trkpt lat="44.49923" lon="4.05502">
        <ele>690.844482</ele>
        <time>2012-04-16T14:10:57Z</time>
      </trkpt>
      <trkpt lat="44.49916" lon="4.05478">
        <ele>688.922119</ele>
        <time>2012-04-16T14:11:15Z</time>
      </trkpt>
      <trkpt lat="44.49907" lon="4.05461">
        <ele>688.922119</ele>
        <time>2012-04-16T14:11:31Z</time>
      </trkpt>
      <trkpt lat="44.49905" lon="4.05458">
        <ele>687.960693</ele>
        <time>2012-04-16T14:11:35Z</time>
      </trkpt>
      <trkpt lat="44.49912" lon="4.05432">
        <ele>686.999268</ele>
        <time>2012-04-16T14:11:55Z</time>
      </trkpt>
      <trkpt lat="44.49913" lon="4.05422">
        <ele>683.153809</ele>
        <time>2012-04-16T14:12:10Z</time>
      </trkpt>
      <trkpt lat="44.49903" lon="4.0542">
        <ele>676.424805</ele>
        <time>2012-04-16T14:12:26Z</time>
      </trkpt>
      <trkpt lat="44.49888" lon="4.05419">
        <ele>671.618164</ele>
        <time>2012-04-16T14:12:44Z</time>
      </trkpt>
      <trkpt lat="44.49877" lon="4.05421">
        <ele>668.253662</ele>
        <time>2012-04-16T14:12:58Z</time>
      </trkpt>
      <trkpt lat="44.49868" lon="4.0543">
        <ele>667.292236</ele>
        <time>2012-04-16T14:13:13Z</time>
      </trkpt>
      <trkpt lat="44.49871" lon="4.05444">
        <ele>663.92749</ele>
        <time>2012-04-16T14:13:32Z</time>
      </trkpt>
      <trkpt lat="44.49863" lon="4.05437">
        <ele>661.043701</ele>
        <time>2012-04-16T14:13:47Z</time>
      </trkpt>
      <trkpt lat="44.49847" lon="4.05427">
        <ele>659.601807</ele>
        <time>2012-04-16T14:14:06Z</time>
      </trkpt>
      <trkpt lat="44.49836" lon="4.05415">
        <ele>658.159912</ele>
        <time>2012-04-16T14:14:22Z</time>
      </trkpt>
      <trkpt lat="44.49832" lon="4.05392">
        <ele>659.601807</ele>
        <time>2012-04-16T14:14:42Z</time>
      </trkpt>
      <trkpt lat="44.49827" lon="4.05387">
        <ele>661.043701</ele>
        <time>2012-04-16T14:14:49Z</time>
      </trkpt>
      <trkpt lat="44.4981" lon="4.05381">
        <ele>654.795166</ele>
        <time>2012-04-16T14:15:08Z</time>
      </trkpt>
      <trkpt lat="44.49807" lon="4.05382">
        <ele>654.314697</ele>
        <time>2012-04-16T14:15:11Z</time>
      </trkpt>
      <trkpt lat="44.49801" lon="4.05391">
        <ele>652.391846</ele>
        <time>2012-04-16T14:15:19Z</time>
      </trkpt>
      <trkpt lat="44.49797" lon="4.05392">
        <ele>650.469238</ele>
        <time>2012-04-16T14:15:23Z</time>
      </trkpt>
      <trkpt lat="44.49791" lon="4.05381">
        <ele>651.911133</ele>
        <time>2012-04-16T14:15:37Z</time>
      </trkpt>
      <trkpt lat="44.49788" lon="4.05379">
        <ele>651.43042</ele>
        <time>2012-04-16T14:15:40Z</time>
      </trkpt>
      <trkpt lat="44.4977" lon="4.05378">
        <ele>647.585205</ele>
        <time>2012-04-16T14:15:59Z</time>
      </trkpt>
      <trkpt lat="44.49761" lon="4.05369">
        <ele>644.220703</ele>
        <time>2012-04-16T14:16:13Z</time>
      </trkpt>
      <trkpt lat="44.49759" lon="4.05361">
        <ele>644.220703</ele>
        <time>2012-04-16T14:16:18Z</time>
      </trkpt>
      <trkpt lat="44.49758" lon="4.05348">
        <ele>642.298096</ele>
        <time>2012-04-16T14:16:34Z</time>
      </trkpt>
      <trkpt lat="44.4975" lon="4.05347">
        <ele>641.817383</ele>
        <time>2012-04-16T14:16:43Z</time>
      </trkpt>
      <trkpt lat="44.49744" lon="4.05342">
        <ele>637.972168</ele>
        <time>2012-04-16T14:16:59Z</time>
      </trkpt>
      <trkpt lat="44.49752" lon="4.05329">
        <ele>634.607422</ele>
        <time>2012-04-16T14:17:14Z</time>
      </trkpt>
      <trkpt lat="44.49768" lon="4.05319">
        <ele>635.088135</ele>
        <time>2012-04-16T14:17:33Z</time>
      </trkpt>
      <trkpt lat="44.49779" lon="4.05314">
        <ele>639.894775</ele>
        <time>2012-04-16T14:17:49Z</time>
      </trkpt>
      <trkpt lat="44.49791" lon="4.05311">
        <ele>644.701172</ele>
        <time>2012-04-16T14:18:05Z</time>
      </trkpt>
      <trkpt lat="44.49803" lon="4.05306">
        <ele>648.546387</ele>
        <time>2012-04-16T14:18:23Z</time>
      </trkpt>
      <trkpt lat="44.49797" lon="4.05301">
        <ele>643.73999</ele>
        <time>2012-04-16T14:18:38Z</time>
      </trkpt>
      <trkpt lat="44.49785" lon="4.05296">
        <ele>635.568604</ele>
        <time>2012-04-16T14:18:55Z</time>
      </trkpt>
      <trkpt lat="44.4977" lon="4.0529">
        <ele>629.800781</ele>
        <time>2012-04-16T14:19:14Z</time>
      </trkpt>
      <trkpt lat="44.49759" lon="4.05282">
        <ele>624.032959</ele>
        <time>2012-04-16T14:19:33Z</time>
      </trkpt>
      <trkpt lat="44.49749" lon="4.05274">
        <ele>617.303711</ele>
        <time>2012-04-16T14:19:53Z</time>
      </trkpt>
      <trkpt lat="44.49735" lon="4.05272">
        <ele>612.49707</ele>
        <time>2012-04-16T14:20:12Z</time>
      </trkpt>
      <trkpt lat="44.49732" lon="4.05259">
        <ele>610.09375</ele>
        <time>2012-04-16T14:20:29Z</time>
      </trkpt>
      <trkpt lat="44.49733" lon="4.05249">
        <ele>607.209961</ele>
        <time>2012-04-16T14:20:43Z</time>
      </trkpt>
      <trkpt lat="44.4974" lon="4.05243">
        <ele>605.768066</ele>
        <time>2012-04-16T14:20:54Z</time>
      </trkpt>
      <trkpt lat="44.49749" lon="4.05239">
        <ele>605.287354</ele>
        <time>2012-04-16T14:21:03Z</time>
      </trkpt>
      <trkpt lat="44.49764" lon="4.05242">
        <ele>605.287354</ele>
        <time>2012-04-16T14:21:17Z</time>
      </trkpt>
      <trkpt lat="44.49778" lon="4.05241">
        <ele>605.768066</ele>
        <time>2012-04-16T14:21:34Z</time>
      </trkpt>
      <trkpt lat="44.4979" lon="4.05242">
        <ele>606.248535</ele>
        <time>2012-04-16T14:21:50Z</time>
      </trkpt>
      <trkpt lat="44.49805" lon="4.05236">
        <ele>606.729248</ele>
        <time>2012-04-16T14:22:07Z</time>
      </trkpt>
      <trkpt lat="44.49818" lon="4.05232">
        <ele>608.171387</ele>
        <time>2012-04-16T14:22:25Z</time>
      </trkpt>
      <trkpt lat="44.49827" lon="4.05224">
        <ele>608.651855</ele>
        <time>2012-04-16T14:22:38Z</time>
      </trkpt>
      <trkpt lat="44.49841" lon="4.05216">
        <ele>610.09375</ele>
        <time>2012-04-16T14:22:56Z</time>
      </trkpt>
      <trkpt lat="44.49841" lon="4.05211">
        <ele>611.055176</ele>
        <time>2012-04-16T14:23:24Z</time>
      </trkpt>
      <trkpt lat="44.49837" lon="4.05209">
        <ele>610.574463</ele>
        <time>2012-04-16T14:23:29Z</time>
      </trkpt>
      <trkpt lat="44.49834" lon="4.05204">
        <ele>610.09375</ele>
        <time>2012-04-16T14:23:34Z</time>
      </trkpt>
      <trkpt lat="44.49822" lon="4.05201">
        <ele>605.287354</ele>
        <time>2012-04-16T14:23:53Z</time>
      </trkpt>
      <trkpt lat="44.49809" lon="4.05199">
        <ele>600.961182</ele>
        <time>2012-04-16T14:24:10Z</time>
      </trkpt>
      <trkpt lat="44.49801" lon="4.05199">
        <ele>599.038574</ele>
        <time>2012-04-16T14:24:22Z</time>
      </trkpt>
      <trkpt lat="44.49797" lon="4.05187">
        <ele>598.077393</ele>
        <time>2012-04-16T14:24:35Z</time>
      </trkpt>
      <trkpt lat="44.49788" lon="4.05173">
        <ele>594.232178</ele>
        <time>2012-04-16T14:24:53Z</time>
      </trkpt>
      <trkpt lat="44.49772" lon="4.05157">
        <ele>592.790283</ele>
        <time>2012-04-16T14:25:11Z</time>
      </trkpt>
      <trkpt lat="44.49759" lon="4.05151">
        <ele>591.828857</ele>
        <time>2012-04-16T14:25:24Z</time>
      </trkpt>
      <trkpt lat="44.49745" lon="4.05136">
        <ele>591.348145</ele>
        <time>2012-04-16T14:25:41Z</time>
      </trkpt>
      <trkpt lat="44.49737" lon="4.05124">
        <ele>591.348145</ele>
        <time>2012-04-16T14:25:55Z</time>
      </trkpt>
      <trkpt lat="44.49726" lon="4.0511">
        <ele>594.232178</ele>
        <time>2012-04-16T14:26:11Z</time>
      </trkpt>
      <trkpt lat="44.49716" lon="4.05098">
        <ele>593.270752</ele>
        <time>2012-04-16T14:26:26Z</time>
      </trkpt>
      <trkpt lat="44.49712" lon="4.05084">
        <ele>590.386963</ele>
        <time>2012-04-16T14:26:42Z</time>
      </trkpt>
      <trkpt lat="44.49715" lon="4.05076">
        <ele>588.464355</ele>
        <time>2012-04-16T14:26:54Z</time>
      </trkpt>
      <trkpt lat="44.4971" lon="4.05069">
        <ele>585.099609</ele>
        <time>2012-04-16T14:27:10Z</time>
      </trkpt>
      <trkpt lat="44.49705" lon="4.05065">
        <ele>582.696289</ele>
        <time>2012-04-16T14:27:28Z</time>
      </trkpt>
      <trkpt lat="44.49701" lon="4.05074">
        <ele>580.773682</ele>
        <time>2012-04-16T14:27:54Z</time>
      </trkpt>
      <trkpt lat="44.49696" lon="4.05079">
        <ele>580.292969</ele>
        <time>2012-04-16T14:28:00Z</time>
      </trkpt>
      <trkpt lat="44.49694" lon="4.05083">
        <ele>578.851074</ele>
        <time>2012-04-16T14:28:14Z</time>
      </trkpt>
      <trkpt lat="44.49684" lon="4.0509">
        <ele>576.447754</ele>
        <time>2012-04-16T14:28:34Z</time>
      </trkpt>
      <trkpt lat="44.49665" lon="4.05103">
        <ele>573.083252</ele>
        <time>2012-04-16T14:28:59Z</time>
      </trkpt>
      <trkpt lat="44.49649" lon="4.05125">
        <ele>569.237793</ele>
        <time>2012-04-16T14:29:29Z</time>
      </trkpt>
      <trkpt lat="44.49628" lon="4.0514">
        <ele>567.315186</ele>
        <time>2012-04-16T14:29:58Z</time>
      </trkpt>
      <trkpt lat="44.49612" lon="4.05147">
        <ele>565.873291</ele>
        <time>2012-04-16T14:30:16Z</time>
      </trkpt>
      <trkpt lat="44.49599" lon="4.05154">
        <ele>565.392578</ele>
        <time>2012-04-16T14:30:30Z</time>
      </trkpt>
      <trkpt lat="44.49584" lon="4.05158">
        <ele>562.028076</ele>
        <time>2012-04-16T14:30:49Z</time>
      </trkpt>
      <trkpt lat="44.49572" lon="4.05163">
        <ele>558.182861</ele>
        <time>2012-04-16T14:31:05Z</time>
      </trkpt>
      <trkpt lat="44.49568" lon="4.05161">
        <ele>558.182861</ele>
        <time>2012-04-16T14:31:29Z</time>
      </trkpt>
      <trkpt lat="44.49561" lon="4.05165">
        <ele>556.740723</ele>
        <time>2012-04-16T14:31:57Z</time>
      </trkpt>
      <trkpt lat="44.49547" lon="4.05173">
        <ele>554.817871</ele>
        <time>2012-04-16T14:32:17Z</time>
      </trkpt>
      <trkpt lat="44.49548" lon="4.05174">
        <ele>553.375977</ele>
        <time>2012-04-16T14:32:52Z</time>
      </trkpt>
      <trkpt lat="44.49547" lon="4.05175">
        <ele>552.414551</ele>
        <time>2012-04-16T14:33:52Z</time>
      </trkpt>
      <trkpt lat="44.49534" lon="4.05178">
        <ele>550.492188</ele>
        <time>2012-04-16T14:34:15Z</time>
      </trkpt>
      <trkpt lat="44.4952" lon="4.05182">
        <ele>546.646851</ele>
        <time>2012-04-16T14:34:37Z</time>
      </trkpt>
      <trkpt lat="44.49504" lon="4.0518">
        <ele>543.762817</ele>
        <time>2012-04-16T14:34:58Z</time>
      </trkpt>
      <trkpt lat="44.4949" lon="4.05186">
        <ele>539.43689</ele>
        <time>2012-04-16T14:35:18Z</time>
      </trkpt>
      <trkpt lat="44.49486" lon="4.05181">
        <ele>536.553101</ele>
        <time>2012-04-16T14:35:36Z</time>
      </trkpt>
      <trkpt lat="44.49478" lon="4.05174">
        <ele>535.591553</ele>
        <time>2012-04-16T14:35:55Z</time>
      </trkpt>
      <trkpt lat="44.49469" lon="4.05173">
        <ele>534.630371</ele>
        <time>2012-04-16T14:36:12Z</time>
      </trkpt>
      <trkpt lat="44.49467" lon="4.05172">
        <ele>534.149658</ele>
        <time>2012-04-16T14:36:14Z</time>
      </trkpt>
      <trkpt lat="44.4944" lon="4.05165">
        <ele>531.746338</ele>
        <time>2012-04-16T14:36:39Z</time>
      </trkpt>
      <trkpt lat="44.49423" lon="4.0516">
        <ele>527.42041</ele>
        <time>2012-04-16T14:36:59Z</time>
      </trkpt>
      <trkpt lat="44.4941" lon="4.05151">
        <ele>529.82373</ele>
        <time>2012-04-16T14:37:19Z</time>
      </trkpt>
      <trkpt lat="44.49407" lon="4.0514">
        <ele>531.265747</ele>
        <time>2012-04-16T14:37:40Z</time>
      </trkpt>
      <trkpt lat="44.49405" lon="4.05135">
        <ele>531.265747</ele>
        <time>2012-04-16T14:37:59Z</time>
      </trkpt>
      <trkpt lat="44.49406" lon="4.05135">
        <ele>531.746338</ele>
        <time>2012-04-16T14:38:43Z</time>
      </trkpt>
      <trkpt lat="44.49405" lon="4.05144">
        <ele>533.188354</ele>
        <time>2012-04-16T14:39:03Z</time>
      </trkpt>
      <trkpt lat="44.49407" lon="4.0514">
        <ele>534.630371</ele>
        <time>2012-04-16T14:39:18Z</time>
      </trkpt>
      <trkpt lat="44.49409" lon="4.05145">
        <ele>535.591553</ele>
        <time>2012-04-16T14:39:32Z</time>
      </trkpt>
      <trkpt lat="44.49406" lon="4.05146">
        <ele>536.072388</ele>
        <time>2012-04-16T14:39:35Z</time>
      </trkpt>
      <trkpt lat="44.49394" lon="4.05144">
        <ele>537.514282</ele>
        <time>2012-04-16T14:39:51Z</time>
      </trkpt>
      <trkpt lat="44.49382" lon="4.05144">
        <ele>541.84021</ele>
        <time>2012-04-16T14:40:08Z</time>
      </trkpt>
      <trkpt lat="44.49375" lon="4.05142">
        <ele>545.685547</ele>
        <time>2012-04-16T14:40:31Z</time>
      </trkpt>
      <trkpt lat="44.49371" lon="4.05137">
        <ele>546.646851</ele>
        <time>2012-04-16T14:40:49Z</time>
      </trkpt>
      <trkpt lat="44.49368" lon="4.0513">
        <ele>549.530762</ele>
        <time>2012-04-16T14:41:07Z</time>
      </trkpt>
      <trkpt lat="44.49371" lon="4.05136">
        <ele>549.050049</ele>
        <time>2012-04-16T14:41:34Z</time>
      </trkpt>
      <trkpt lat="44.4937" lon="4.05135">
        <ele>548.569336</ele>
        <time>2012-04-16T14:42:17Z</time>
      </trkpt>
      <trkpt lat="44.49368" lon="4.05118">
        <ele>549.530762</ele>
        <time>2012-04-16T14:43:34Z</time>
      </trkpt>
      <trkpt lat="44.49364" lon="4.051">
        <ele>548.569336</ele>
        <time>2012-04-16T14:43:54Z</time>
      </trkpt>
      <trkpt lat="44.49366" lon="4.05112">
        <ele>547.127441</ele>
        <time>2012-04-16T14:44:09Z</time>
      </trkpt>
      <trkpt lat="44.49366" lon="4.05117">
        <ele>547.127441</ele>
        <time>2012-04-16T14:44:29Z</time>
      </trkpt>
      <trkpt lat="44.49371" lon="4.05127">
        <ele>549.530762</ele>
        <time>2012-04-16T14:44:52Z</time>
      </trkpt>
      <trkpt lat="44.49375" lon="4.05131">
        <ele>552.414551</ele>
        <time>2012-04-16T14:45:23Z</time>
      </trkpt>
      <trkpt lat="44.49374" lon="4.05137">
        <ele>553.375977</ele>
        <time>2012-04-16T14:45:43Z</time>
      </trkpt>
      <trkpt lat="44.49373" lon="4.05138">
        <ele>555.298584</ele>
        <time>2012-04-16T14:46:05Z</time>
      </trkpt>
      <trkpt lat="44.49374" lon="4.05137">
        <ele>555.298584</ele>
        <time>2012-04-16T14:47:14Z</time>
      </trkpt>
      <trkpt lat="44.49378" lon="4.05138">
        <ele>554.817871</ele>
        <time>2012-04-16T14:48:38Z</time>
      </trkpt>
      <trkpt lat="44.49373" lon="4.05138">
        <ele>553.856689</ele>
        <time>2012-04-16T14:49:00Z</time>
      </trkpt>
      <trkpt lat="44.49367" lon="4.0514">
        <ele>553.856689</ele>
        <time>2012-04-16T14:49:11Z</time>
      </trkpt>
      <trkpt lat="44.49356" lon="4.05136">
        <ele>556.26001</ele>
        <time>2012-04-16T14:49:30Z</time>
      </trkpt>
      <trkpt lat="44.49356" lon="4.05136">
        <ele>561.06665</ele>
        <time>2012-04-16T14:50:12Z</time>
      </trkpt>
      <trkpt lat="44.49327" lon="4.05115">
        <ele>566.834473</ele>
        <time>2012-04-16T14:51:06Z</time>
      </trkpt>
      <trkpt lat="44.49322" lon="4.05111">
        <ele>566.35376</ele>
        <time>2012-04-16T14:51:16Z</time>
      </trkpt>
      <trkpt lat="44.49313" lon="4.05103">
        <ele>561.06665</ele>
        <time>2012-04-16T14:51:35Z</time>
      </trkpt>
      <trkpt lat="44.49309" lon="4.05096">
        <ele>558.182861</ele>
        <time>2012-04-16T14:51:49Z</time>
      </trkpt>
      <trkpt lat="44.49308" lon="4.05081">
        <ele>556.740723</ele>
        <time>2012-04-16T14:52:03Z</time>
      </trkpt>
      <trkpt lat="44.49304" lon="4.05067">
        <ele>553.856689</ele>
        <time>2012-04-16T14:52:26Z</time>
      </trkpt>
      <trkpt lat="44.49318" lon="4.05073">
        <ele>546.646851</ele>
        <time>2012-04-16T14:53:22Z</time>
      </trkpt>
      <trkpt lat="44.49321" lon="4.0507">
        <ele>544.243652</ele>
        <time>2012-04-16T14:53:45Z</time>
      </trkpt>
      <trkpt lat="44.49302" lon="4.05019">
        <ele>541.84021</ele>
        <time>2012-04-16T14:54:07Z</time>
      </trkpt>
    </trkseg>
  </trk>
</gpx>